VIR48WE CYYZ-EGLL
Flight info
| Callsign | VIR48WE |
|---|---|
| Flight time | 6h 23m |
| Altitude | 37000 |
| Route | VERDO7 IPTOS DCT KEMVI Q852 KANUR Q806 SAVEX DCT MIILS N285B NICSO/M084F390 NATS BEXET/N0478F390 DCT ENJEX DCT AVZAC DCT INFEC DCT JETZI DCT AMFUL DCT ORZEB/N0403F230 P2 SIRIC |
| Aircraft | A35K/H-SDE2E3GHIJ3J4J5LM1ORWXY/LB1D1 |
Departure
| Time | 2026-05-05 01:02 |
|---|---|
| Airport | Toronto Pearson International Airport (CYYZ) |
Arrival
| Time | 2026-05-05 07:25 |
|---|---|
| Airport | London Heathrow Airport (EGLL) |
| Time | Latitude | Longitude | Altitude | Speed | Heading |
|---|---|---|---|---|---|
| 2026-05-05 00:09 | 43.68260 | -79.61938 | 567 ft | 0 kts | 280° |
| 2026-05-05 00:49 | 43.68256 | -79.61905 | 574 ft | 4 kts | 279° |
| 2026-05-05 00:50 | 43.68251 | -79.61868 | 572 ft | 4 kts | 281° |
| 2026-05-05 00:50 | 43.68247 | -79.61836 | 571 ft | 4 kts | 256° |
| 2026-05-05 00:50 | 43.68256 | -79.61820 | 575 ft | 4 kts | 168° |
| 2026-05-05 00:50 | 43.68282 | -79.61831 | 575 ft | 4 kts | 161° |
| 2026-05-05 00:51 | 43.68299 | -79.61838 | 572 ft | 0 kts | 171° |
| 2026-05-05 00:53 | 43.68292 | -79.61837 | 574 ft | 5 kts | 172° |
| 2026-05-05 00:54 | 43.68213 | -79.61819 | 576 ft | 13 kts | 169° |
| 2026-05-05 00:54 | 43.68145 | -79.61841 | 573 ft | 10 kts | 222° |
| 2026-05-05 00:54 | 43.68092 | -79.61914 | 576 ft | 11 kts | 225° |
| 2026-05-05 00:54 | 43.68029 | -79.61982 | 576 ft | 12 kts | 197° |
| 2026-05-05 00:55 | 43.67961 | -79.62041 | 576 ft | 12 kts | 224° |
| 2026-05-05 00:55 | 43.67900 | -79.62124 | 571 ft | 12 kts | 218° |
| 2026-05-05 00:55 | 43.67830 | -79.62111 | 577 ft | 13 kts | 146° |
| 2026-05-05 00:55 | 43.67757 | -79.62024 | 577 ft | 15 kts | 137° |
| 2026-05-05 00:56 | 43.67680 | -79.61926 | 577 ft | 16 kts | 137° |
| 2026-05-05 00:56 | 43.67598 | -79.61819 | 577 ft | 16 kts | 136° |
| 2026-05-05 00:56 | 43.67511 | -79.61706 | 578 ft | 19 kts | 137° |
| 2026-05-05 00:56 | 43.67412 | -79.61574 | 580 ft | 20 kts | 132° |
| 2026-05-05 00:57 | 43.67308 | -79.61440 | 573 ft | 21 kts | 137° |
| 2026-05-05 00:57 | 43.67199 | -79.61299 | 575 ft | 22 kts | 137° |
| 2026-05-05 00:57 | 43.67156 | -79.61134 | 573 ft | 13 kts | 58° |
| 2026-05-05 00:57 | 43.67235 | -79.61028 | 570 ft | 22 kts | 45° |
| 2026-05-05 00:58 | 43.67345 | -79.60868 | 573 ft | 24 kts | 46° |
| 2026-05-05 00:58 | 43.67464 | -79.60696 | 574 ft | 25 kts | 46° |
| 2026-05-05 00:58 | 43.67587 | -79.60518 | 575 ft | 26 kts | 46° |
| 2026-05-05 00:58 | 43.67714 | -79.60334 | 574 ft | 28 kts | 46° |
| 2026-05-05 00:59 | 43.67853 | -79.60132 | 572 ft | 30 kts | 46° |
| 2026-05-05 00:59 | 43.67957 | -79.59983 | 569 ft | 4 kts | 46° |
| 2026-05-05 00:59 | 43.67974 | -79.59942 | 571 ft | 6 kts | 73° |
| 2026-05-05 00:59 | 43.67967 | -79.59888 | 570 ft | 6 kts | 121° |
| 2026-05-05 01:00 | 43.67940 | -79.59845 | 574 ft | 6 kts | 133° |
| 2026-05-05 01:00 | 43.67908 | -79.59798 | 575 ft | 7 kts | 133° |
| 2026-05-05 01:00 | 43.67862 | -79.59780 | 570 ft | 2 kts | 218° |
| 2026-05-05 01:00 | 43.67847 | -79.59805 | 574 ft | 0 kts | 229° |
| 2026-05-05 01:01 | 43.67801 | -79.59875 | 569 ft | 38 kts | 227° |
| 2026-05-05 01:01 | 43.67465 | -79.60360 | 576 ft | 101 kts | 226° |
| 2026-05-05 01:01 | 43.66853 | -79.61252 | 579 ft | 154 kts | 226° |
| 2026-05-05 01:01 | 43.66081 | -79.62374 | 1043 ft | 164 kts | 226° |
| 2026-05-05 01:02 | 43.65543 | -79.63143 | 1441 ft | 170 kts | 226° |
| 2026-05-05 01:02 | 43.64725 | -79.64325 | 2142 ft | 176 kts | 226° |
| 2026-05-05 01:02 | 43.63830 | -79.65605 | 2546 ft | 194 kts | 226° |
| 2026-05-05 01:02 | 43.62852 | -79.66962 | 3083 ft | 205 kts | 226° |
| 2026-05-05 01:03 | 43.61801 | -79.68420 | 3531 ft | 222 kts | 226° |
| 2026-05-05 01:03 | 43.60689 | -79.69955 | 4196 ft | 229 kts | 226° |
| 2026-05-05 01:03 | 43.59543 | -79.71523 | 4882 ft | 235 kts | 226° |
| 2026-05-05 01:03 | 43.58332 | -79.73071 | 5640 ft | 240 kts | 220° |
| 2026-05-05 01:04 | 43.56871 | -79.74256 | 6350 ft | 248 kts | 205° |
| 2026-05-05 01:04 | 43.53382 | -79.74080 | 6992 ft | 274 kts | 158° |
| 2026-05-05 01:04 | 43.51995 | -79.72229 | 7030 ft | 294 kts | 125° |
| 2026-05-05 01:05 | 43.51403 | -79.69461 | 7319 ft | 309 kts | 100° |
| 2026-05-05 01:05 | 43.51117 | -79.66513 | 8047 ft | 313 kts | 102° |
| 2026-05-05 01:05 | 43.50789 | -79.63533 | 8890 ft | 316 kts | 102° |
| 2026-05-05 01:05 | 43.50460 | -79.60512 | 9686 ft | 322 kts | 101° |
| 2026-05-05 01:06 | 43.50494 | -79.57393 | 10353 ft | 333 kts | 81° |
| 2026-05-05 01:06 | 43.51037 | -79.54178 | 10699 ft | 354 kts | 74° |
| 2026-05-05 01:06 | 43.51716 | -79.50816 | 11032 ft | 374 kts | 74° |
| 2026-05-05 01:06 | 43.52423 | -79.47283 | 11453 ft | 389 kts | 74° |
| 2026-05-05 01:07 | 43.53166 | -79.43661 | 12102 ft | 396 kts | 71° |
| 2026-05-05 01:07 | 43.54245 | -79.40155 | 12860 ft | 399 kts | 62° |
| 2026-05-05 01:07 | 43.55499 | -79.36713 | 13582 ft | 404 kts | 61° |
| 2026-05-05 01:07 | 43.56780 | -79.33243 | 14216 ft | 408 kts | 61° |
| 2026-05-05 01:08 | 43.58073 | -79.29720 | 14835 ft | 413 kts | 61° |
| 2026-05-05 01:08 | 43.59373 | -79.26156 | 15490 ft | 417 kts | 61° |
| 2026-05-05 01:08 | 43.60679 | -79.22561 | 16115 ft | 422 kts | 62° |
| 2026-05-05 01:08 | 43.61999 | -79.18920 | 16757 ft | 426 kts | 62° |
| 2026-05-05 01:09 | 43.63329 | -79.15243 | 17388 ft | 430 kts | 62° |
| 2026-05-05 01:09 | 43.64671 | -79.11525 | 18020 ft | 434 kts | 62° |
| 2026-05-05 01:09 | 43.66006 | -79.07822 | 18570 ft | 438 kts | 62° |
| 2026-05-05 01:09 | 43.67368 | -79.04039 | 19157 ft | 442 kts | 62° |
| 2026-05-05 01:10 | 43.68740 | -79.00221 | 19803 ft | 444 kts | 62° |
| 2026-05-05 01:10 | 43.70122 | -78.96372 | 20391 ft | 449 kts | 61° |
| 2026-05-05 01:10 | 43.71515 | -78.92488 | 20977 ft | 453 kts | 61° |
| 2026-05-05 01:10 | 43.72917 | -78.88574 | 21580 ft | 457 kts | 61° |
| 2026-05-05 01:11 | 43.74330 | -78.84620 | 22169 ft | 460 kts | 61° |
| 2026-05-05 01:11 | 43.75758 | -78.80622 | 22759 ft | 464 kts | 61° |
| 2026-05-05 01:11 | 43.77194 | -78.76595 | 23325 ft | 468 kts | 61° |
| 2026-05-05 01:11 | 43.78629 | -78.72537 | 23826 ft | 472 kts | 62° |
| 2026-05-05 01:12 | 43.80048 | -78.68425 | 24312 ft | 475 kts | 62° |
| 2026-05-05 01:12 | 43.81477 | -78.64273 | 24857 ft | 478 kts | 62° |
| 2026-05-05 01:12 | 43.82910 | -78.60112 | 25354 ft | 481 kts | 62° |
| 2026-05-05 01:12 | 43.84358 | -78.55906 | 25825 ft | 484 kts | 62° |
| 2026-05-05 01:13 | 43.85813 | -78.51681 | 26264 ft | 489 kts | 62° |
| 2026-05-05 01:13 | 43.87266 | -78.47456 | 26708 ft | 493 kts | 62° |
| 2026-05-05 01:13 | 43.88761 | -78.43103 | 27192 ft | 496 kts | 62° |
| 2026-05-05 01:13 | 43.90246 | -78.38771 | 27695 ft | 499 kts | 62° |
| 2026-05-05 01:14 | 43.91743 | -78.34401 | 28154 ft | 502 kts | 62° |
| 2026-05-05 01:14 | 43.93223 | -78.30070 | 28606 ft | 506 kts | 62° |
| 2026-05-05 01:14 | 43.94735 | -78.25641 | 29051 ft | 509 kts | 62° |
| 2026-05-05 01:14 | 43.96252 | -78.21189 | 29486 ft | 512 kts | 62° |
| 2026-05-05 01:15 | 43.97775 | -78.16711 | 29881 ft | 515 kts | 62° |
| 2026-05-05 01:15 | 43.99309 | -78.12196 | 30251 ft | 518 kts | 62° |
| 2026-05-05 01:15 | 44.00848 | -78.07657 | 30596 ft | 521 kts | 62° |
| 2026-05-05 01:15 | 44.02395 | -78.03085 | 30957 ft | 523 kts | 62° |
| 2026-05-05 01:16 | 44.03943 | -77.98505 | 31320 ft | 525 kts | 62° |
| 2026-05-05 01:16 | 44.05498 | -77.93893 | 31650 ft | 527 kts | 61° |
| 2026-05-05 01:16 | 44.07053 | -77.89274 | 32040 ft | 527 kts | 61° |
| 2026-05-05 01:16 | 44.08608 | -77.84649 | 32371 ft | 529 kts | 61° |
| 2026-05-05 01:17 | 44.10165 | -77.80008 | 32808 ft | 528 kts | 61° |
| 2026-05-05 01:17 | 44.11715 | -77.75378 | 33264 ft | 527 kts | 61° |
| 2026-05-05 01:17 | 44.13259 | -77.70759 | 33706 ft | 525 kts | 60° |
| 2026-05-05 01:17 | 44.14781 | -77.66200 | 34059 ft | 524 kts | 61° |
| 2026-05-05 01:18 | 44.16315 | -77.61598 | 34369 ft | 524 kts | 61° |
| 2026-05-05 01:18 | 44.17848 | -77.56992 | 34708 ft | 522 kts | 61° |
| 2026-05-05 01:18 | 44.19409 | -77.52435 | 35092 ft | 518 kts | 58° |
| 2026-05-05 01:18 | 44.21299 | -77.48200 | 35367 ft | 511 kts | 48° |
| 2026-05-05 01:19 | 44.23482 | -77.44277 | 35613 ft | 510 kts | 46° |
| 2026-05-05 01:19 | 44.25703 | -77.40423 | 35836 ft | 510 kts | 46° |
| 2026-05-05 01:19 | 44.27900 | -77.36611 | 36083 ft | 510 kts | 46° |
| 2026-05-05 01:19 | 44.30122 | -77.32743 | 36362 ft | 510 kts | 46° |
| 2026-05-05 01:20 | 44.32343 | -77.28869 | 36584 ft | 511 kts | 47° |
| 2026-05-05 01:20 | 44.34567 | -77.24979 | 36678 ft | 514 kts | 47° |
| 2026-05-05 01:20 | 44.39052 | -77.17120 | 36690 ft | 518 kts | 47° |
| 2026-05-05 01:21 | 44.43525 | -77.09250 | 36698 ft | 516 kts | 47° |
| 2026-05-05 01:21 | 44.47967 | -77.01417 | 36701 ft | 516 kts | 47° |
| 2026-05-05 01:22 | 44.52431 | -76.93525 | 36700 ft | 517 kts | 47° |
| 2026-05-05 01:22 | 44.56891 | -76.85615 | 36698 ft | 517 kts | 47° |
| 2026-05-05 01:23 | 44.61347 | -76.77693 | 36697 ft | 517 kts | 47° |
| 2026-05-05 01:23 | 44.65797 | -76.69760 | 36697 ft | 518 kts | 47° |
| 2026-05-05 01:24 | 44.70256 | -76.61787 | 36692 ft | 518 kts | 47° |
| 2026-05-05 01:24 | 44.74702 | -76.53814 | 36688 ft | 518 kts | 47° |
| 2026-05-05 01:25 | 44.79121 | -76.45869 | 36683 ft | 518 kts | 47° |
| 2026-05-05 01:25 | 44.83574 | -76.37843 | 36680 ft | 519 kts | 47° |
| 2026-05-05 01:26 | 44.88021 | -76.29803 | 36678 ft | 520 kts | 47° |
| 2026-05-05 01:26 | 44.92332 | -76.21675 | 36678 ft | 523 kts | 54° |
| 2026-05-05 01:27 | 44.96018 | -76.12773 | 36671 ft | 526 kts | 57° |
| 2026-05-05 01:27 | 44.99531 | -76.03719 | 36669 ft | 525 kts | 57° |
| 2026-05-05 01:28 | 45.03042 | -75.94649 | 36670 ft | 524 kts | 57° |
| 2026-05-05 01:28 | 45.06560 | -75.85615 | 36661 ft | 524 kts | 57° |
| 2026-05-05 01:29 | 45.10064 | -75.76626 | 36668 ft | 524 kts | 57° |
| 2026-05-05 01:29 | 45.13577 | -75.67587 | 36659 ft | 525 kts | 57° |
| 2026-05-05 01:30 | 45.17095 | -75.58503 | 36658 ft | 523 kts | 57° |
| 2026-05-05 01:30 | 45.20582 | -75.49464 | 36657 ft | 522 kts | 57° |
| 2026-05-05 01:31 | 45.23621 | -75.41568 | 36677 ft | 522 kts | 57° |
| 2026-05-05 01:31 | 45.27505 | -75.32918 | 36657 ft | 517 kts | 49° |
| 2026-05-05 01:32 | 45.31881 | -75.24812 | 36657 ft | 517 kts | 47° |
| 2026-05-05 01:32 | 45.36327 | -75.16763 | 36657 ft | 517 kts | 47° |
| 2026-05-05 01:33 | 45.40715 | -75.08644 | 36662 ft | 519 kts | 52° |
| 2026-05-05 01:33 | 45.43766 | -74.99347 | 36662 ft | 528 kts | 72° |
| 2026-05-05 01:34 | 45.45425 | -74.89149 | 36666 ft | 530 kts | 74° |
| 2026-05-05 01:34 | 45.46958 | -74.78853 | 36668 ft | 530 kts | 74° |
| 2026-05-05 01:35 | 45.48471 | -74.68554 | 36674 ft | 531 kts | 74° |
| 2026-05-05 01:35 | 45.49927 | -74.58266 | 36674 ft | 529 kts | 75° |
| 2026-05-05 01:36 | 45.51377 | -74.47987 | 36698 ft | 527 kts | 72° |
| 2026-05-05 01:36 | 45.53407 | -74.37989 | 36687 ft | 525 kts | 68° |
| 2026-05-05 01:37 | 45.55574 | -74.28093 | 36688 ft | 525 kts | 68° |
| 2026-05-05 01:37 | 45.57767 | -74.18144 | 36688 ft | 525 kts | 68° |
| 2026-05-05 01:38 | 45.59937 | -74.08205 | 36695 ft | 523 kts | 68° |
| 2026-05-05 01:38 | 45.62093 | -73.98253 | 36702 ft | 523 kts | 68° |
| 2026-05-05 01:39 | 45.64205 | -73.88449 | 36701 ft | 523 kts | 68° |
| 2026-05-05 01:39 | 45.66323 | -73.78570 | 36701 ft | 523 kts | 68° |
| 2026-05-05 01:40 | 45.68449 | -73.68606 | 36701 ft | 523 kts | 68° |
| 2026-05-05 01:40 | 45.70554 | -73.58696 | 36700 ft | 523 kts | 69° |
| 2026-05-05 01:41 | 45.72660 | -73.48728 | 36700 ft | 523 kts | 69° |
| 2026-05-05 01:41 | 45.74758 | -73.38752 | 36709 ft | 523 kts | 69° |
| 2026-05-05 01:42 | 45.76849 | -73.28763 | 36705 ft | 523 kts | 69° |
| 2026-05-05 01:42 | 45.78928 | -73.18778 | 36708 ft | 523 kts | 69° |
| 2026-05-05 01:43 | 45.80997 | -73.08792 | 36711 ft | 522 kts | 69° |
| 2026-05-05 01:43 | 45.83048 | -72.98848 | 36710 ft | 523 kts | 69° |
| 2026-05-05 01:44 | 45.85102 | -72.88834 | 36710 ft | 523 kts | 69° |
| 2026-05-05 01:44 | 45.87144 | -72.78832 | 36732 ft | 523 kts | 69° |
| 2026-05-05 01:45 | 45.89181 | -72.68820 | 36713 ft | 522 kts | 69° |
| 2026-05-05 01:45 | 45.91206 | -72.58810 | 36713 ft | 522 kts | 69° |
| 2026-05-05 01:46 | 45.93224 | -72.48776 | 36716 ft | 522 kts | 69° |
| 2026-05-05 01:46 | 45.95234 | -72.38734 | 36716 ft | 522 kts | 69° |
| 2026-05-05 01:47 | 45.97217 | -72.28768 | 36719 ft | 522 kts | 69° |
| 2026-05-05 01:47 | 45.99206 | -72.18727 | 36730 ft | 522 kts | 69° |
| 2026-05-05 01:48 | 46.01188 | -72.08671 | 36735 ft | 521 kts | 69° |
| 2026-05-05 01:48 | 46.03157 | -71.98627 | 36736 ft | 521 kts | 69° |
| 2026-05-05 01:49 | 46.04787 | -71.90270 | 36750 ft | 521 kts | 69° |
| 2026-05-05 01:49 | 46.07057 | -71.78569 | 36749 ft | 522 kts | 69° |
| 2026-05-05 01:50 | 46.08688 | -71.70118 | 36764 ft | 522 kts | 69° |
| 2026-05-05 01:50 | 46.10619 | -71.60066 | 36752 ft | 523 kts | 69° |
| 2026-05-05 01:51 | 46.12556 | -71.49933 | 36779 ft | 524 kts | 69° |
| 2026-05-05 01:51 | 46.14482 | -71.39795 | 36758 ft | 524 kts | 69° |
| 2026-05-05 01:52 | 46.16390 | -71.29705 | 36767 ft | 525 kts | 69° |
| 2026-05-05 01:52 | 46.18307 | -71.19509 | 36769 ft | 526 kts | 70° |
| 2026-05-05 01:53 | 46.20213 | -71.09315 | 36780 ft | 526 kts | 70° |
| 2026-05-05 01:53 | 46.22105 | -70.99130 | 36778 ft | 526 kts | 70° |
| 2026-05-05 01:54 | 46.23993 | -70.88916 | 36777 ft | 526 kts | 70° |
| 2026-05-05 01:54 | 46.25859 | -70.78776 | 36780 ft | 524 kts | 70° |
| 2026-05-05 01:55 | 46.27721 | -70.68594 | 36781 ft | 524 kts | 70° |
| 2026-05-05 01:55 | 46.29574 | -70.58414 | 36784 ft | 524 kts | 70° |
| 2026-05-05 01:56 | 46.31421 | -70.48210 | 36780 ft | 524 kts | 70° |
| 2026-05-05 01:56 | 46.33261 | -70.37990 | 36787 ft | 524 kts | 70° |
| 2026-05-05 01:57 | 46.35086 | -70.27784 | 36785 ft | 523 kts | 70° |
| 2026-05-05 01:57 | 46.36890 | -70.17657 | 36787 ft | 523 kts | 70° |
| 2026-05-05 01:58 | 46.38696 | -70.07451 | 36782 ft | 523 kts | 70° |
| 2026-05-05 01:58 | 46.40491 | -69.97237 | 36784 ft | 523 kts | 70° |
| 2026-05-05 01:59 | 46.42277 | -69.87022 | 36784 ft | 523 kts | 71° |
| 2026-05-05 01:59 | 46.44055 | -69.76807 | 36790 ft | 522 kts | 71° |
| 2026-05-05 02:00 | 46.45822 | -69.66590 | 36793 ft | 522 kts | 71° |
| 2026-05-05 02:00 | 46.47579 | -69.56362 | 36803 ft | 522 kts | 71° |
| 2026-05-05 02:01 | 46.49326 | -69.46141 | 36798 ft | 522 kts | 71° |
| 2026-05-05 02:01 | 46.51067 | -69.35902 | 36801 ft | 522 kts | 71° |
| 2026-05-05 02:02 | 46.52794 | -69.25673 | 36819 ft | 522 kts | 71° |
| 2026-05-05 02:02 | 46.54510 | -69.15445 | 36804 ft | 521 kts | 71° |
| 2026-05-05 02:03 | 46.56210 | -69.05265 | 36802 ft | 520 kts | 71° |
| 2026-05-05 02:03 | 46.57906 | -68.95043 | 36801 ft | 520 kts | 71° |
| 2026-05-05 02:04 | 46.59592 | -68.84813 | 36790 ft | 520 kts | 71° |
| 2026-05-05 02:04 | 46.61271 | -68.74572 | 36784 ft | 520 kts | 71° |
| 2026-05-05 02:05 | 46.62942 | -68.64326 | 36788 ft | 521 kts | 71° |
| 2026-05-05 02:05 | 46.64607 | -68.54049 | 36777 ft | 520 kts | 71° |
| 2026-05-05 02:06 | 46.66246 | -68.43867 | 36792 ft | 521 kts | 72° |
| 2026-05-05 02:06 | 46.67815 | -68.34059 | 36798 ft | 522 kts | 72° |
| 2026-05-05 02:07 | 46.69455 | -68.23744 | 36807 ft | 523 kts | 72° |
| 2026-05-05 02:07 | 46.71086 | -68.13413 | 36804 ft | 523 kts | 72° |
| 2026-05-05 02:08 | 46.72705 | -68.03100 | 36807 ft | 523 kts | 72° |
| 2026-05-05 02:08 | 46.74321 | -67.92744 | 36805 ft | 523 kts | 72° |
| 2026-05-05 02:09 | 46.75925 | -67.82401 | 36796 ft | 524 kts | 72° |
| 2026-05-05 02:09 | 46.77514 | -67.72089 | 36775 ft | 524 kts | 72° |
| 2026-05-05 02:10 | 46.79101 | -67.61718 | 36776 ft | 524 kts | 72° |
| 2026-05-05 02:10 | 46.80679 | -67.51340 | 36780 ft | 524 kts | 72° |
| 2026-05-05 02:11 | 46.82249 | -67.40954 | 36782 ft | 523 kts | 73° |
| 2026-05-05 02:11 | 46.83806 | -67.30576 | 36775 ft | 522 kts | 73° |
| 2026-05-05 02:12 | 46.86112 | -67.15085 | 36775 ft | 522 kts | 73° |
| 2026-05-05 02:13 | 46.87644 | -67.04707 | 36771 ft | 522 kts | 73° |
| 2026-05-05 02:13 | 46.88944 | -66.94248 | 36776 ft | 524 kts | 77° |
| 2026-05-05 02:14 | 46.89980 | -66.83678 | 36765 ft | 525 kts | 78° |
| 2026-05-05 02:14 | 46.91023 | -66.73180 | 36767 ft | 525 kts | 77° |
| 2026-05-05 02:15 | 46.92116 | -66.62609 | 36758 ft | 525 kts | 77° |
| 2026-05-05 02:15 | 46.93218 | -66.52056 | 36761 ft | 525 kts | 77° |
| 2026-05-05 02:16 | 46.94315 | -66.41463 | 36758 ft | 525 kts | 78° |
| 2026-05-05 02:16 | 46.95396 | -66.30902 | 36752 ft | 525 kts | 78° |
| 2026-05-05 02:17 | 46.96466 | -66.20336 | 36755 ft | 525 kts | 78° |
| 2026-05-05 02:17 | 46.97520 | -66.09825 | 36765 ft | 525 kts | 78° |
| 2026-05-05 02:18 | 46.98571 | -65.99255 | 36750 ft | 523 kts | 78° |
| 2026-05-05 02:18 | 46.99608 | -65.88712 | 36750 ft | 523 kts | 79° |
| 2026-05-05 02:19 | 47.00638 | -65.78143 | 36741 ft | 524 kts | 79° |
| 2026-05-05 02:19 | 47.01658 | -65.67571 | 36740 ft | 523 kts | 79° |
| 2026-05-05 02:20 | 47.02668 | -65.57007 | 36737 ft | 523 kts | 79° |
| 2026-05-05 02:20 | 47.03663 | -65.46488 | 36730 ft | 524 kts | 79° |
| 2026-05-05 02:21 | 47.04654 | -65.35898 | 36734 ft | 525 kts | 79° |
| 2026-05-05 02:21 | 47.05639 | -65.25272 | 36730 ft | 525 kts | 79° |
| 2026-05-05 02:22 | 47.06613 | -65.14658 | 36727 ft | 525 kts | 79° |
| 2026-05-05 02:22 | 47.07570 | -65.04108 | 36728 ft | 524 kts | 80° |
| 2026-05-05 02:23 | 47.08524 | -64.93489 | 36727 ft | 525 kts | 80° |
| 2026-05-05 02:23 | 47.09470 | -64.82845 | 36730 ft | 526 kts | 80° |
| 2026-05-05 02:24 | 47.10407 | -64.72190 | 36729 ft | 526 kts | 80° |
| 2026-05-05 02:24 | 47.11333 | -64.61542 | 36735 ft | 526 kts | 80° |
| 2026-05-05 02:25 | 47.12250 | -64.50879 | 36735 ft | 525 kts | 81° |
| 2026-05-05 02:25 | 47.13155 | -64.40233 | 36728 ft | 526 kts | 81° |
| 2026-05-05 02:26 | 47.14047 | -64.29622 | 36731 ft | 526 kts | 81° |
| 2026-05-05 02:26 | 47.14934 | -64.18944 | 36729 ft | 526 kts | 81° |
| 2026-05-05 02:27 | 47.15812 | -64.08259 | 36717 ft | 526 kts | 81° |
| 2026-05-05 02:27 | 47.16682 | -63.97554 | 36707 ft | 526 kts | 81° |
| 2026-05-05 02:28 | 47.17533 | -63.86946 | 36691 ft | 526 kts | 81° |
| 2026-05-05 02:28 | 47.18380 | -63.76262 | 36689 ft | 526 kts | 81° |
| 2026-05-05 02:29 | 47.19217 | -63.65573 | 36687 ft | 526 kts | 81° |
| 2026-05-05 02:29 | 47.20043 | -63.54895 | 36695 ft | 526 kts | 81° |
| 2026-05-05 02:30 | 47.20855 | -63.44277 | 36699 ft | 526 kts | 82° |
| 2026-05-05 02:30 | 47.21662 | -63.33584 | 36704 ft | 526 kts | 82° |
| 2026-05-05 02:31 | 47.22461 | -63.22868 | 36707 ft | 526 kts | 82° |
| 2026-05-05 02:31 | 47.23248 | -63.12172 | 36707 ft | 526 kts | 82° |
| 2026-05-05 02:32 | 47.24021 | -63.01525 | 36715 ft | 526 kts | 82° |
| 2026-05-05 02:32 | 47.24789 | -62.90814 | 36710 ft | 526 kts | 83° |
| 2026-05-05 02:33 | 47.25548 | -62.80082 | 36710 ft | 527 kts | 83° |
| 2026-05-05 02:33 | 47.26297 | -62.69345 | 36708 ft | 527 kts | 83° |
| 2026-05-05 02:34 | 47.27035 | -62.58614 | 36713 ft | 527 kts | 83° |
| 2026-05-05 02:34 | 47.27764 | -62.47878 | 36703 ft | 526 kts | 83° |
| 2026-05-05 02:35 | 47.28478 | -62.37209 | 36703 ft | 527 kts | 83° |
| 2026-05-05 02:35 | 47.29188 | -62.26439 | 36705 ft | 528 kts | 83° |
| 2026-05-05 02:36 | 47.29889 | -62.15662 | 36692 ft | 528 kts | 83° |
| 2026-05-05 02:36 | 47.30579 | -62.04886 | 36690 ft | 528 kts | 83° |
| 2026-05-05 02:37 | 47.31259 | -61.94108 | 36689 ft | 528 kts | 84° |
| 2026-05-05 02:37 | 47.31930 | -61.83320 | 36659 ft | 529 kts | 84° |
| 2026-05-05 02:38 | 47.32587 | -61.72573 | 36653 ft | 529 kts | 84° |
| 2026-05-05 02:38 | 47.33237 | -61.61778 | 36663 ft | 529 kts | 84° |
| 2026-05-05 02:39 | 47.33878 | -61.50969 | 36659 ft | 529 kts | 84° |
| 2026-05-05 02:39 | 47.34509 | -61.40148 | 36674 ft | 530 kts | 84° |
| 2026-05-05 02:40 | 47.35128 | -61.29363 | 36670 ft | 531 kts | 84° |
| 2026-05-05 02:40 | 47.35642 | -61.20271 | 36686 ft | 531 kts | 85° |
| 2026-05-05 02:41 | 47.36245 | -61.09423 | 36685 ft | 531 kts | 85° |
| 2026-05-05 02:41 | 47.36839 | -60.98567 | 36685 ft | 531 kts | 85° |
| 2026-05-05 02:42 | 47.37419 | -60.87766 | 36684 ft | 532 kts | 85° |
| 2026-05-05 02:42 | 47.37994 | -60.76864 | 36687 ft | 533 kts | 85° |
| 2026-05-05 02:43 | 47.38559 | -60.65960 | 36693 ft | 533 kts | 85° |
| 2026-05-05 02:43 | 47.39114 | -60.55038 | 36690 ft | 533 kts | 85° |
| 2026-05-05 02:44 | 47.39658 | -60.44123 | 36684 ft | 533 kts | 85° |
| 2026-05-05 02:44 | 47.40189 | -60.33302 | 36691 ft | 531 kts | 85° |
| 2026-05-05 02:45 | 47.40710 | -60.22434 | 36698 ft | 530 kts | 85° |
| 2026-05-05 02:45 | 47.41220 | -60.11569 | 36691 ft | 530 kts | 86° |
| 2026-05-05 02:46 | 47.41720 | -60.00704 | 36695 ft | 530 kts | 86° |
| 2026-05-05 02:46 | 47.42210 | -59.89841 | 36696 ft | 531 kts | 86° |
| 2026-05-05 02:47 | 47.42691 | -59.78957 | 36696 ft | 531 kts | 86° |
| 2026-05-05 02:47 | 47.43161 | -59.68063 | 36694 ft | 531 kts | 86° |
| 2026-05-05 02:48 | 47.43621 | -59.57177 | 36691 ft | 531 kts | 86° |
| 2026-05-05 02:48 | 47.44068 | -59.46349 | 36692 ft | 531 kts | 86° |
| 2026-05-05 02:49 | 47.44508 | -59.35459 | 36695 ft | 532 kts | 86° |
| 2026-05-05 02:49 | 47.44938 | -59.24538 | 36691 ft | 532 kts | 87° |
| 2026-05-05 02:50 | 47.45358 | -59.13614 | 36693 ft | 532 kts | 87° |
| 2026-05-05 02:50 | 47.45767 | -59.02686 | 36694 ft | 532 kts | 87° |
| 2026-05-05 02:51 | 47.46164 | -58.91823 | 36689 ft | 532 kts | 87° |
| 2026-05-05 02:51 | 47.46552 | -58.80902 | 36691 ft | 532 kts | 87° |
| 2026-05-05 02:52 | 47.46931 | -58.69968 | 36689 ft | 532 kts | 87° |
| 2026-05-05 02:52 | 47.47298 | -58.59051 | 36689 ft | 532 kts | 87° |
| 2026-05-05 02:53 | 47.47656 | -58.48104 | 36689 ft | 532 kts | 88° |
| 2026-05-05 02:53 | 47.48001 | -58.37244 | 36694 ft | 533 kts | 88° |
| 2026-05-05 02:54 | 47.48338 | -58.26274 | 36695 ft | 534 kts | 88° |
| 2026-05-05 02:54 | 47.48666 | -58.15308 | 36694 ft | 534 kts | 88° |
| 2026-05-05 02:55 | 47.48983 | -58.04348 | 36692 ft | 534 kts | 88° |
| 2026-05-05 02:55 | 47.49289 | -57.93373 | 36691 ft | 533 kts | 88° |
| 2026-05-05 02:56 | 47.49585 | -57.82378 | 36686 ft | 535 kts | 89° |
| 2026-05-05 02:56 | 47.49869 | -57.71442 | 36685 ft | 536 kts | 89° |
| 2026-05-05 02:57 | 47.50146 | -57.60422 | 36692 ft | 536 kts | 89° |
| 2026-05-05 02:57 | 47.50412 | -57.49409 | 36698 ft | 535 kts | 89° |
| 2026-05-05 02:58 | 47.50667 | -57.38387 | 36689 ft | 535 kts | 89° |
| 2026-05-05 02:58 | 47.50909 | -57.27418 | 36697 ft | 537 kts | 89° |
| 2026-05-05 02:59 | 47.51144 | -57.16344 | 36705 ft | 538 kts | 89° |
| 2026-05-05 02:59 | 47.51369 | -57.05284 | 36705 ft | 538 kts | 89° |
| 2026-05-05 03:00 | 47.51583 | -56.94227 | 36675 ft | 538 kts | 89° |
| 2026-05-05 03:00 | 47.51785 | -56.83144 | 36688 ft | 539 kts | 90° |
| 2026-05-05 03:01 | 47.51977 | -56.72129 | 36666 ft | 540 kts | 90° |
| 2026-05-05 03:01 | 47.52159 | -56.61032 | 36640 ft | 539 kts | 90° |
| 2026-05-05 03:02 | 47.52330 | -56.49925 | 36629 ft | 539 kts | 90° |
| 2026-05-05 03:02 | 47.52491 | -56.38823 | 36574 ft | 539 kts | 90° |
| 2026-05-05 03:03 | 47.52641 | -56.27712 | 36597 ft | 541 kts | 90° |
| 2026-05-05 03:03 | 47.52781 | -56.16567 | 36593 ft | 542 kts | 90° |
| 2026-05-05 03:04 | 47.52910 | -56.05402 | 36561 ft | 541 kts | 90° |
| 2026-05-05 03:04 | 47.53028 | -55.94334 | 36571 ft | 541 kts | 91° |
| 2026-05-05 03:05 | 47.53135 | -55.83200 | 36566 ft | 542 kts | 91° |
| 2026-05-05 03:05 | 47.53232 | -55.72036 | 36580 ft | 543 kts | 91° |
| 2026-05-05 03:06 | 47.53318 | -55.60858 | 36582 ft | 543 kts | 91° |
| 2026-05-05 03:06 | 47.53393 | -55.49691 | 36628 ft | 543 kts | 91° |
| 2026-05-05 03:07 | 47.53457 | -55.38515 | 36639 ft | 543 kts | 91° |
| 2026-05-05 03:07 | 47.53510 | -55.27399 | 36667 ft | 544 kts | 91° |
| 2026-05-05 03:08 | 47.53553 | -55.16202 | 36712 ft | 544 kts | 91° |
| 2026-05-05 03:08 | 47.53585 | -55.04978 | 36715 ft | 544 kts | 91° |
| 2026-05-05 03:09 | 47.53606 | -54.93764 | 36733 ft | 544 kts | 91° |
| 2026-05-05 03:09 | 47.53616 | -54.82560 | 36731 ft | 545 kts | 92° |
| 2026-05-05 03:10 | 47.53615 | -54.71403 | 36744 ft | 545 kts | 92° |
| 2026-05-05 03:10 | 47.53603 | -54.60179 | 36724 ft | 544 kts | 92° |
| 2026-05-05 03:11 | 47.53581 | -54.48980 | 36724 ft | 543 kts | 92° |
| 2026-05-05 03:11 | 47.53547 | -54.37799 | 36723 ft | 543 kts | 92° |
| 2026-05-05 03:12 | 47.53503 | -54.26670 | 36724 ft | 544 kts | 92° |
| 2026-05-05 03:12 | 47.53447 | -54.15455 | 36722 ft | 545 kts | 92° |
| 2026-05-05 03:13 | 47.53381 | -54.04231 | 36713 ft | 545 kts | 92° |
| 2026-05-05 03:13 | 47.53304 | -53.93013 | 36719 ft | 545 kts | 92° |
| 2026-05-05 03:14 | 47.53216 | -53.81813 | 36716 ft | 544 kts | 92° |
| 2026-05-05 03:14 | 47.53116 | -53.70607 | 36724 ft | 544 kts | 92° |
| 2026-05-05 03:15 | 47.53007 | -53.59478 | 36724 ft | 544 kts | 92° |
| 2026-05-05 03:15 | 47.52886 | -53.48277 | 36733 ft | 544 kts | 93° |
| 2026-05-05 03:16 | 47.52754 | -53.37064 | 36736 ft | 544 kts | 93° |
| 2026-05-05 03:16 | 47.52611 | -53.25838 | 36746 ft | 545 kts | 93° |
| 2026-05-05 03:17 | 47.52459 | -53.14682 | 36742 ft | 545 kts | 93° |
| 2026-05-05 03:17 | 47.52294 | -53.03446 | 36750 ft | 545 kts | 93° |
| 2026-05-05 03:18 | 47.52118 | -52.92235 | 36749 ft | 545 kts | 94° |
| 2026-05-05 03:18 | 47.51932 | -52.81032 | 36717 ft | 545 kts | 94° |
| 2026-05-05 03:19 | 47.51629 | -52.64150 | 36750 ft | 548 kts | 94° |
| 2026-05-05 03:19 | 47.51416 | -52.52946 | 36756 ft | 549 kts | 94° |
| 2026-05-05 03:20 | 47.51191 | -52.41662 | 36795 ft | 548 kts | 94° |
| 2026-05-05 03:20 | 47.50955 | -52.30406 | 36779 ft | 547 kts | 94° |
| 2026-05-05 03:21 | 47.50706 | -52.19140 | 36815 ft | 548 kts | 94° |
| 2026-05-05 03:21 | 47.50448 | -52.07856 | 36861 ft | 549 kts | 94° |
| 2026-05-05 03:22 | 47.50575 | -52.02195 | 37086 ft | 553 kts | 84° |
| 2026-05-05 03:22 | 47.51323 | -51.96600 | 37357 ft | 555 kts | 73° |
| 2026-05-05 03:22 | 47.52523 | -51.91158 | 37532 ft | 557 kts | 70° |
| 2026-05-05 03:22 | 47.53857 | -51.85767 | 37747 ft | 557 kts | 69° |
| 2026-05-05 03:23 | 47.55246 | -51.80444 | 38138 ft | 553 kts | 68° |
| 2026-05-05 03:23 | 47.56633 | -51.75214 | 38425 ft | 551 kts | 68° |
| 2026-05-05 03:23 | 47.58031 | -51.69932 | 38576 ft | 551 kts | 68° |
| 2026-05-05 03:23 | 47.59419 | -51.64636 | 38664 ft | 551 kts | 68° |
| 2026-05-05 03:24 | 47.62168 | -51.53998 | 38813 ft | 553 kts | 69° |
| 2026-05-05 03:24 | 47.64902 | -51.43298 | 38862 ft | 555 kts | 69° |
| 2026-05-05 03:25 | 47.67624 | -51.32584 | 38862 ft | 553 kts | 69° |
| 2026-05-05 03:25 | 47.70325 | -51.21901 | 38860 ft | 552 kts | 69° |
| 2026-05-05 03:26 | 47.72561 | -51.13024 | 38862 ft | 552 kts | 69° |
| 2026-05-05 03:26 | 47.75679 | -51.00584 | 38865 ft | 552 kts | 69° |
| 2026-05-05 03:27 | 47.78346 | -50.89896 | 38868 ft | 550 kts | 69° |
| 2026-05-05 03:27 | 47.80552 | -50.81014 | 38865 ft | 550 kts | 69° |
| 2026-05-05 03:28 | 47.83634 | -50.68538 | 38870 ft | 550 kts | 70° |
| 2026-05-05 03:28 | 47.85823 | -50.59640 | 38874 ft | 550 kts | 70° |
| 2026-05-05 03:29 | 47.88444 | -50.48941 | 38873 ft | 549 kts | 70° |
| 2026-05-05 03:29 | 47.91049 | -50.38252 | 38873 ft | 548 kts | 70° |
| 2026-05-05 03:30 | 47.93645 | -50.27550 | 38883 ft | 548 kts | 70° |
| 2026-05-05 03:30 | 47.96232 | -50.16834 | 38884 ft | 547 kts | 70° |
| 2026-05-05 03:31 | 47.98783 | -50.06216 | 38881 ft | 546 kts | 70° |
| 2026-05-05 03:31 | 48.01353 | -49.95535 | 38890 ft | 546 kts | 70° |
| 2026-05-05 03:32 | 48.04029 | -49.84903 | 38886 ft | 546 kts | 69° |
| 2026-05-05 03:32 | 48.06723 | -49.74269 | 38884 ft | 547 kts | 69° |
| 2026-05-05 03:33 | 48.09395 | -49.63609 | 38892 ft | 547 kts | 70° |
| 2026-05-05 03:33 | 48.12043 | -49.52942 | 38903 ft | 546 kts | 70° |
| 2026-05-05 03:34 | 48.14661 | -49.42330 | 38897 ft | 546 kts | 70° |
| 2026-05-05 03:34 | 48.17286 | -49.31646 | 38897 ft | 546 kts | 70° |
| 2026-05-05 03:35 | 48.19899 | -49.20959 | 38909 ft | 546 kts | 70° |
| 2026-05-05 03:35 | 48.22505 | -49.10251 | 38910 ft | 546 kts | 70° |
| 2026-05-05 03:36 | 48.25097 | -48.99547 | 38906 ft | 546 kts | 70° |
| 2026-05-05 03:36 | 48.27666 | -48.88891 | 38903 ft | 546 kts | 70° |
| 2026-05-05 03:37 | 48.30238 | -48.78164 | 38907 ft | 546 kts | 71° |
| 2026-05-05 03:37 | 48.32806 | -48.67407 | 38914 ft | 547 kts | 71° |
| 2026-05-05 03:38 | 48.35370 | -48.56611 | 38911 ft | 547 kts | 71° |
| 2026-05-05 03:38 | 48.37903 | -48.45898 | 38915 ft | 547 kts | 71° |
| 2026-05-05 03:39 | 48.40443 | -48.35095 | 38927 ft | 546 kts | 71° |
| 2026-05-05 03:39 | 48.42966 | -48.24312 | 38926 ft | 546 kts | 71° |
| 2026-05-05 03:40 | 48.45482 | -48.13504 | 38926 ft | 546 kts | 71° |
| 2026-05-05 03:40 | 48.47970 | -48.02770 | 38941 ft | 545 kts | 71° |
| 2026-05-05 03:41 | 48.50462 | -47.91959 | 38938 ft | 545 kts | 71° |
| 2026-05-05 03:41 | 48.52936 | -47.81168 | 38929 ft | 545 kts | 71° |
| 2026-05-05 03:42 | 48.55406 | -47.70338 | 38941 ft | 546 kts | 72° |
| 2026-05-05 03:42 | 48.57855 | -47.59556 | 38944 ft | 545 kts | 72° |
| 2026-05-05 03:43 | 48.60299 | -47.48739 | 38946 ft | 544 kts | 72° |
| 2026-05-05 03:43 | 48.62737 | -47.37888 | 38949 ft | 544 kts | 72° |
| 2026-05-05 03:44 | 48.65163 | -47.27039 | 38945 ft | 544 kts | 72° |
| 2026-05-05 03:44 | 48.67572 | -47.16209 | 38960 ft | 543 kts | 72° |
| 2026-05-05 03:45 | 48.69971 | -47.05367 | 38964 ft | 542 kts | 72° |
| 2026-05-05 03:45 | 48.72357 | -46.94525 | 38962 ft | 542 kts | 72° |
| 2026-05-05 03:46 | 48.74734 | -46.83671 | 38955 ft | 542 kts | 72° |
| 2026-05-05 03:46 | 48.77083 | -46.72886 | 38971 ft | 542 kts | 72° |
| 2026-05-05 03:47 | 48.79439 | -46.62014 | 38972 ft | 542 kts | 72° |
| 2026-05-05 03:47 | 48.81783 | -46.51138 | 38972 ft | 542 kts | 73° |
| 2026-05-05 03:48 | 48.84115 | -46.40261 | 38970 ft | 542 kts | 73° |
| 2026-05-05 03:48 | 48.86436 | -46.29383 | 38977 ft | 540 kts | 73° |
| 2026-05-05 03:49 | 48.88739 | -46.18525 | 38979 ft | 540 kts | 73° |
| 2026-05-05 03:49 | 48.91017 | -46.07727 | 38979 ft | 540 kts | 73° |
| 2026-05-05 03:50 | 48.93302 | -45.96836 | 38985 ft | 540 kts | 73° |
| 2026-05-05 03:50 | 48.95575 | -45.85951 | 38995 ft | 538 kts | 73° |
| 2026-05-05 03:51 | 48.97832 | -45.75076 | 38979 ft | 538 kts | 73° |
| 2026-05-05 03:51 | 49.00065 | -45.64263 | 38979 ft | 538 kts | 73° |
| 2026-05-05 03:52 | 49.02301 | -45.53374 | 38999 ft | 538 kts | 74° |
| 2026-05-05 03:52 | 49.04525 | -45.42486 | 39000 ft | 537 kts | 74° |
| 2026-05-05 03:53 | 49.06730 | -45.31634 | 38999 ft | 536 kts | 74° |
| 2026-05-05 03:53 | 49.08929 | -45.20745 | 38996 ft | 536 kts | 74° |
| 2026-05-05 03:54 | 49.11105 | -45.09911 | 38997 ft | 536 kts | 74° |
| 2026-05-05 03:54 | 49.13278 | -44.99033 | 39010 ft | 535 kts | 74° |
| 2026-05-05 03:55 | 49.15441 | -44.88147 | 39007 ft | 535 kts | 75° |
| 2026-05-05 03:55 | 49.17594 | -44.77247 | 39007 ft | 535 kts | 75° |
| 2026-05-05 03:56 | 49.19738 | -44.66328 | 39015 ft | 537 kts | 75° |
| 2026-05-05 03:56 | 49.21875 | -44.55386 | 39017 ft | 537 kts | 75° |
| 2026-05-05 03:57 | 49.23992 | -44.44489 | 39018 ft | 537 kts | 75° |
| 2026-05-05 03:57 | 49.26114 | -44.33501 | 39016 ft | 537 kts | 75° |
| 2026-05-05 03:58 | 49.28222 | -44.22520 | 39019 ft | 537 kts | 75° |
| 2026-05-05 03:58 | 49.30317 | -44.11545 | 39021 ft | 536 kts | 75° |
| 2026-05-05 03:59 | 49.32400 | -44.00568 | 39021 ft | 536 kts | 75° |
| 2026-05-05 03:59 | 49.34476 | -43.89563 | 39023 ft | 536 kts | 75° |
| 2026-05-05 04:00 | 49.36539 | -43.78565 | 39031 ft | 536 kts | 75° |
| 2026-05-05 04:00 | 49.38576 | -43.67640 | 39015 ft | 535 kts | 76° |
| 2026-05-05 04:01 | 49.40613 | -43.56650 | 39030 ft | 535 kts | 76° |
| 2026-05-05 04:01 | 49.42641 | -43.45643 | 39029 ft | 535 kts | 76° |
| 2026-05-05 04:02 | 49.44657 | -43.34635 | 39032 ft | 535 kts | 76° |
| 2026-05-05 04:02 | 49.46651 | -43.23686 | 39033 ft | 534 kts | 76° |
| 2026-05-05 04:03 | 49.48644 | -43.12671 | 39035 ft | 534 kts | 77° |
| 2026-05-05 04:03 | 49.50623 | -43.01662 | 39034 ft | 534 kts | 77° |
| 2026-05-05 04:04 | 49.52593 | -42.90638 | 39037 ft | 534 kts | 77° |
| 2026-05-05 04:04 | 49.54551 | -42.79620 | 39034 ft | 534 kts | 77° |
| 2026-05-05 04:05 | 49.56492 | -42.68629 | 39034 ft | 534 kts | 77° |
| 2026-05-05 04:05 | 49.58430 | -42.57583 | 39041 ft | 535 kts | 77° |
| 2026-05-05 04:06 | 49.60366 | -42.46486 | 39033 ft | 535 kts | 77° |
| 2026-05-05 04:06 | 49.62278 | -42.35459 | 39030 ft | 535 kts | 77° |
| 2026-05-05 04:07 | 49.64187 | -42.24382 | 39034 ft | 533 kts | 78° |
| 2026-05-05 04:07 | 49.66080 | -42.13319 | 39037 ft | 533 kts | 78° |
| 2026-05-05 04:08 | 49.67962 | -42.02245 | 39044 ft | 533 kts | 78° |
| 2026-05-05 04:08 | 49.69835 | -41.91159 | 39017 ft | 533 kts | 78° |
| 2026-05-05 04:09 | 49.71680 | -41.80183 | 39033 ft | 529 kts | 78° |
| 2026-05-05 04:09 | 49.73517 | -41.69172 | 39037 ft | 528 kts | 78° |
| 2026-05-05 04:10 | 49.75341 | -41.58159 | 39032 ft | 528 kts | 78° |
| 2026-05-05 04:10 | 49.77158 | -41.47115 | 39030 ft | 529 kts | 78° |
| 2026-05-05 04:11 | 49.78962 | -41.36100 | 39023 ft | 526 kts | 79° |
| 2026-05-05 04:11 | 49.80748 | -41.25113 | 39034 ft | 525 kts | 79° |
| 2026-05-05 04:12 | 49.82509 | -41.14203 | 39029 ft | 525 kts | 79° |
| 2026-05-05 04:12 | 49.84270 | -41.03220 | 39021 ft | 525 kts | 79° |
| 2026-05-05 04:13 | 49.86022 | -40.92223 | 39019 ft | 524 kts | 79° |
| 2026-05-05 04:13 | 49.87757 | -40.81274 | 39032 ft | 522 kts | 79° |
| 2026-05-05 04:14 | 49.89475 | -40.70342 | 39029 ft | 521 kts | 79° |
| 2026-05-05 04:14 | 49.91173 | -40.59467 | 39029 ft | 521 kts | 79° |
| 2026-05-05 04:15 | 49.92872 | -40.48512 | 39023 ft | 521 kts | 79° |
| 2026-05-05 04:15 | 49.94273 | -40.39435 | 39028 ft | 520 kts | 79° |
| 2026-05-05 04:16 | 49.95945 | -40.28518 | 39037 ft | 520 kts | 79° |
| 2026-05-05 04:16 | 49.97607 | -40.17594 | 39037 ft | 520 kts | 79° |
| 2026-05-05 04:17 | 49.99261 | -40.06651 | 39039 ft | 520 kts | 79° |
| 2026-05-05 04:17 | 50.01335 | -39.95868 | 39047 ft | 522 kts | 72° |
| 2026-05-05 04:18 | 50.03940 | -39.85269 | 39050 ft | 525 kts | 71° |
| 2026-05-05 04:18 | 50.06615 | -39.74692 | 39050 ft | 525 kts | 71° |
| 2026-05-05 04:19 | 50.09277 | -39.64102 | 39048 ft | 525 kts | 71° |
| 2026-05-05 04:19 | 50.11894 | -39.53589 | 39059 ft | 521 kts | 71° |
| 2026-05-05 04:20 | 50.14498 | -39.43056 | 39067 ft | 520 kts | 71° |
| 2026-05-05 04:20 | 50.17083 | -39.32534 | 39066 ft | 519 kts | 71° |
| 2026-05-05 04:21 | 50.19663 | -39.21989 | 39083 ft | 519 kts | 71° |
| 2026-05-05 04:21 | 50.22225 | -39.11479 | 39091 ft | 515 kts | 71° |
| 2026-05-05 04:22 | 50.24743 | -39.01097 | 39097 ft | 513 kts | 71° |
| 2026-05-05 04:22 | 50.27262 | -38.90651 | 39089 ft | 513 kts | 71° |
| 2026-05-05 04:23 | 50.29771 | -38.80196 | 39091 ft | 514 kts | 71° |
| 2026-05-05 04:23 | 50.32276 | -38.69717 | 39116 ft | 513 kts | 71° |
| 2026-05-05 04:24 | 50.34766 | -38.59252 | 39125 ft | 512 kts | 71° |
| 2026-05-05 04:25 | 50.38467 | -38.43593 | 39143 ft | 512 kts | 71° |
| 2026-05-05 04:25 | 50.40929 | -38.33116 | 39138 ft | 512 kts | 71° |
| 2026-05-05 04:26 | 50.43390 | -38.22585 | 39151 ft | 516 kts | 71° |
| 2026-05-05 04:26 | 50.45854 | -38.11995 | 39151 ft | 516 kts | 71° |
| 2026-05-05 04:27 | 50.48294 | -38.01462 | 39160 ft | 516 kts | 71° |
| 2026-05-05 04:27 | 50.50742 | -37.90836 | 39155 ft | 516 kts | 71° |
| 2026-05-05 04:28 | 50.53181 | -37.80191 | 39168 ft | 519 kts | 71° |
| 2026-05-05 04:28 | 50.55622 | -37.69493 | 39181 ft | 519 kts | 71° |
| 2026-05-05 04:29 | 50.58038 | -37.58852 | 39183 ft | 519 kts | 71° |
| 2026-05-05 04:29 | 50.60459 | -37.48131 | 39180 ft | 519 kts | 71° |
| 2026-05-05 04:30 | 50.62873 | -37.37389 | 39198 ft | 520 kts | 71° |
| 2026-05-05 04:30 | 50.65276 | -37.26640 | 39197 ft | 520 kts | 71° |
| 2026-05-05 04:31 | 50.67667 | -37.15890 | 39203 ft | 520 kts | 71° |
| 2026-05-05 04:31 | 50.70052 | -37.05105 | 39204 ft | 520 kts | 71° |
| 2026-05-05 04:32 | 50.72423 | -36.94334 | 39213 ft | 519 kts | 70° |
| 2026-05-05 04:32 | 50.74783 | -36.83551 | 39219 ft | 519 kts | 70° |
| 2026-05-05 04:33 | 50.77116 | -36.72843 | 39222 ft | 519 kts | 70° |
| 2026-05-05 04:33 | 50.79456 | -36.62039 | 39231 ft | 519 kts | 70° |
| 2026-05-05 04:34 | 50.81790 | -36.51208 | 39230 ft | 521 kts | 70° |
| 2026-05-05 04:34 | 50.84119 | -36.40345 | 39230 ft | 521 kts | 70° |
| 2026-05-05 04:35 | 50.86434 | -36.29492 | 39241 ft | 521 kts | 70° |
| 2026-05-05 04:35 | 50.88743 | -36.18605 | 39244 ft | 521 kts | 70° |
| 2026-05-05 04:36 | 50.91029 | -36.07760 | 39252 ft | 523 kts | 70° |
| 2026-05-05 04:36 | 50.93331 | -35.96794 | 39259 ft | 524 kts | 70° |
| 2026-05-05 04:37 | 50.95619 | -35.85832 | 39260 ft | 524 kts | 70° |
| 2026-05-05 04:37 | 50.97901 | -35.74837 | 39265 ft | 524 kts | 70° |
| 2026-05-05 04:38 | 51.00172 | -35.63831 | 39271 ft | 524 kts | 70° |
| 2026-05-05 04:38 | 51.02431 | -35.52827 | 39270 ft | 524 kts | 70° |
| 2026-05-05 04:39 | 51.04680 | -35.41808 | 39270 ft | 524 kts | 70° |
| 2026-05-05 04:39 | 51.06906 | -35.30843 | 39272 ft | 524 kts | 70° |
| 2026-05-05 04:40 | 51.09133 | -35.19793 | 39279 ft | 524 kts | 70° |
| 2026-05-05 04:40 | 51.11352 | -35.08741 | 39284 ft | 524 kts | 70° |
| 2026-05-05 04:41 | 51.13561 | -34.97673 | 39279 ft | 525 kts | 70° |
| 2026-05-05 04:41 | 51.15766 | -34.86570 | 39293 ft | 525 kts | 70° |
| 2026-05-05 04:42 | 51.17961 | -34.75447 | 39288 ft | 524 kts | 69° |
| 2026-05-05 04:42 | 51.20121 | -34.64436 | 39298 ft | 524 kts | 69° |
| 2026-05-05 04:43 | 51.22286 | -34.53335 | 39301 ft | 523 kts | 69° |
| 2026-05-05 04:43 | 51.24436 | -34.42247 | 39303 ft | 524 kts | 69° |
| 2026-05-05 04:44 | 51.26579 | -34.31128 | 39306 ft | 523 kts | 69° |
| 2026-05-05 04:44 | 51.28708 | -34.20020 | 39309 ft | 522 kts | 69° |
| 2026-05-05 04:45 | 51.30812 | -34.08982 | 39306 ft | 522 kts | 69° |
| 2026-05-05 04:45 | 51.32919 | -33.97857 | 39314 ft | 522 kts | 69° |
| 2026-05-05 04:46 | 51.35013 | -33.86737 | 39319 ft | 521 kts | 68° |
| 2026-05-05 04:46 | 51.37091 | -33.75633 | 39322 ft | 520 kts | 69° |
| 2026-05-05 04:47 | 51.39160 | -33.64516 | 39322 ft | 520 kts | 69° |
| 2026-05-05 04:47 | 51.41216 | -33.53400 | 39322 ft | 520 kts | 69° |
| 2026-05-05 04:48 | 51.43263 | -33.42266 | 39319 ft | 519 kts | 68° |
| 2026-05-05 04:48 | 51.45269 | -33.31280 | 39323 ft | 515 kts | 68° |
| 2026-05-05 04:49 | 51.47273 | -33.20249 | 39334 ft | 514 kts | 68° |
| 2026-05-05 04:49 | 51.49266 | -33.09219 | 39330 ft | 515 kts | 68° |
| 2026-05-05 04:50 | 51.51248 | -32.98164 | 39343 ft | 514 kts | 68° |
| 2026-05-05 04:50 | 51.53197 | -32.87234 | 39335 ft | 510 kts | 68° |
| 2026-05-05 04:51 | 51.55140 | -32.76277 | 39333 ft | 510 kts | 68° |
| 2026-05-05 04:51 | 51.57075 | -32.65304 | 39339 ft | 510 kts | 68° |
| 2026-05-05 04:52 | 51.59000 | -32.54316 | 39374 ft | 510 kts | 68° |
| 2026-05-05 04:52 | 51.60905 | -32.43368 | 39343 ft | 511 kts | 68° |
| 2026-05-05 04:53 | 51.62813 | -32.32342 | 39345 ft | 511 kts | 68° |
| 2026-05-05 04:53 | 51.64710 | -32.21306 | 39347 ft | 511 kts | 68° |
| 2026-05-05 04:54 | 51.66596 | -32.10260 | 39346 ft | 512 kts | 68° |
| 2026-05-05 04:54 | 51.68475 | -31.99193 | 39346 ft | 512 kts | 68° |
| 2026-05-05 04:55 | 51.70343 | -31.88115 | 39346 ft | 512 kts | 68° |
| 2026-05-05 04:55 | 51.72189 | -31.77102 | 39347 ft | 511 kts | 69° |
| 2026-05-05 04:56 | 51.74038 | -31.65994 | 39347 ft | 512 kts | 69° |
| 2026-05-05 04:56 | 51.75875 | -31.54891 | 39353 ft | 511 kts | 69° |
| 2026-05-05 04:57 | 51.77694 | -31.43820 | 39351 ft | 510 kts | 69° |
| 2026-05-05 04:57 | 51.79489 | -31.32825 | 39355 ft | 509 kts | 69° |
| 2026-05-05 04:58 | 51.81288 | -31.21738 | 39357 ft | 510 kts | 69° |
| 2026-05-05 04:58 | 51.83077 | -31.10639 | 39359 ft | 510 kts | 69° |
| 2026-05-05 04:59 | 51.84853 | -30.99543 | 39357 ft | 510 kts | 69° |
| 2026-05-05 04:59 | 51.86619 | -30.88437 | 39361 ft | 510 kts | 69° |
| 2026-05-05 05:00 | 51.88375 | -30.77317 | 39359 ft | 510 kts | 69° |
| 2026-05-05 05:00 | 51.90112 | -30.66246 | 39387 ft | 510 kts | 70° |
| 2026-05-05 05:01 | 51.91850 | -30.55092 | 39361 ft | 510 kts | 70° |
| 2026-05-05 05:01 | 51.93288 | -30.45805 | 39368 ft | 510 kts | 70° |
| 2026-05-05 05:02 | 51.95296 | -30.32748 | 39368 ft | 510 kts | 70° |
| 2026-05-05 05:02 | 51.96994 | -30.21624 | 39370 ft | 510 kts | 70° |
| 2026-05-05 05:03 | 51.98405 | -30.12324 | 39374 ft | 511 kts | 70° |
| 2026-05-05 05:03 | 52.00160 | -30.01143 | 39377 ft | 508 kts | 66° |
| 2026-05-05 05:04 | 52.02650 | -29.90468 | 39373 ft | 505 kts | 62° |
| 2026-05-05 05:04 | 52.05301 | -29.79902 | 39373 ft | 505 kts | 61° |
| 2026-05-05 05:05 | 52.07954 | -29.69391 | 39384 ft | 506 kts | 62° |
| 2026-05-05 05:05 | 52.10605 | -29.58785 | 39370 ft | 507 kts | 62° |
| 2026-05-05 05:06 | 52.13244 | -29.48139 | 39370 ft | 507 kts | 62° |
| 2026-05-05 05:06 | 52.15868 | -29.37488 | 39369 ft | 507 kts | 62° |
| 2026-05-05 05:07 | 52.18487 | -29.26812 | 39370 ft | 507 kts | 62° |
| 2026-05-05 05:07 | 52.21076 | -29.16202 | 39371 ft | 507 kts | 62° |
| 2026-05-05 05:08 | 52.23678 | -29.05492 | 39373 ft | 507 kts | 62° |
| 2026-05-05 05:08 | 52.26273 | -28.94758 | 39370 ft | 507 kts | 63° |
| 2026-05-05 05:09 | 52.28853 | -28.84034 | 39387 ft | 507 kts | 63° |
| 2026-05-05 05:09 | 52.31409 | -28.73358 | 39373 ft | 507 kts | 63° |
| 2026-05-05 05:10 | 52.33970 | -28.62607 | 39373 ft | 507 kts | 63° |
| 2026-05-05 05:10 | 52.36523 | -28.51840 | 39373 ft | 507 kts | 63° |
| 2026-05-05 05:11 | 52.39068 | -28.41047 | 39395 ft | 508 kts | 63° |
| 2026-05-05 05:11 | 52.41603 | -28.30244 | 39371 ft | 508 kts | 63° |
| 2026-05-05 05:12 | 52.44127 | -28.19433 | 39368 ft | 508 kts | 64° |
| 2026-05-05 05:12 | 52.46626 | -28.08674 | 39368 ft | 508 kts | 64° |
| 2026-05-05 05:13 | 52.49131 | -27.97836 | 39365 ft | 508 kts | 64° |
| 2026-05-05 05:13 | 52.51629 | -27.86971 | 39366 ft | 508 kts | 64° |
| 2026-05-05 05:14 | 52.54116 | -27.76103 | 39362 ft | 508 kts | 64° |
| 2026-05-05 05:14 | 52.56595 | -27.65208 | 39362 ft | 508 kts | 64° |
| 2026-05-05 05:15 | 52.59052 | -27.54359 | 39360 ft | 508 kts | 64° |
| 2026-05-05 05:15 | 52.61512 | -27.43439 | 39358 ft | 508 kts | 65° |
| 2026-05-05 05:16 | 52.63962 | -27.32505 | 39359 ft | 509 kts | 65° |
| 2026-05-05 05:16 | 52.66399 | -27.21570 | 39356 ft | 509 kts | 65° |
| 2026-05-05 05:17 | 52.68827 | -27.10620 | 39355 ft | 509 kts | 65° |
| 2026-05-05 05:17 | 52.71232 | -26.99722 | 39356 ft | 508 kts | 65° |
| 2026-05-05 05:18 | 52.73641 | -26.88743 | 39354 ft | 508 kts | 65° |
| 2026-05-05 05:18 | 52.76039 | -26.77752 | 39353 ft | 508 kts | 65° |
| 2026-05-05 05:19 | 52.78425 | -26.66760 | 39348 ft | 508 kts | 65° |
| 2026-05-05 05:19 | 52.80801 | -26.55756 | 39348 ft | 508 kts | 65° |
| 2026-05-05 05:20 | 52.83168 | -26.44738 | 39347 ft | 508 kts | 66° |
| 2026-05-05 05:20 | 52.85524 | -26.33708 | 39345 ft | 508 kts | 66° |
| 2026-05-05 05:21 | 52.87857 | -26.22728 | 39346 ft | 508 kts | 66° |
| 2026-05-05 05:21 | 52.90193 | -26.11674 | 39356 ft | 508 kts | 66° |
| 2026-05-05 05:22 | 52.92519 | -26.00602 | 39346 ft | 508 kts | 66° |
| 2026-05-05 05:22 | 52.94838 | -25.89506 | 39334 ft | 508 kts | 66° |
| 2026-05-05 05:23 | 52.97129 | -25.78484 | 39349 ft | 508 kts | 66° |
| 2026-05-05 05:23 | 52.99422 | -25.67387 | 39351 ft | 508 kts | 66° |
| 2026-05-05 05:24 | 53.01705 | -25.56284 | 39341 ft | 508 kts | 66° |
| 2026-05-05 05:24 | 53.03977 | -25.45164 | 39339 ft | 508 kts | 67° |
| 2026-05-05 05:25 | 53.06240 | -25.34033 | 39342 ft | 508 kts | 67° |
| 2026-05-05 05:25 | 53.08489 | -25.22902 | 39339 ft | 508 kts | 67° |
| 2026-05-05 05:26 | 53.10716 | -25.11824 | 39340 ft | 507 kts | 67° |
| 2026-05-05 05:26 | 53.12946 | -25.00663 | 39336 ft | 507 kts | 67° |
| 2026-05-05 05:27 | 53.15163 | -24.89503 | 39334 ft | 507 kts | 67° |
| 2026-05-05 05:27 | 53.18472 | -24.72730 | 39349 ft | 508 kts | 68° |
| 2026-05-05 05:28 | 53.20660 | -24.61556 | 39334 ft | 507 kts | 68° |
| 2026-05-05 05:28 | 53.22840 | -24.50360 | 39331 ft | 507 kts | 68° |
| 2026-05-05 05:29 | 53.25012 | -24.39138 | 39333 ft | 507 kts | 68° |
| 2026-05-05 05:29 | 53.27172 | -24.27913 | 39332 ft | 508 kts | 68° |
| 2026-05-05 05:30 | 53.29322 | -24.16675 | 39330 ft | 508 kts | 68° |
| 2026-05-05 05:30 | 53.31451 | -24.05476 | 39329 ft | 508 kts | 68° |
| 2026-05-05 05:31 | 53.33582 | -23.94204 | 39330 ft | 508 kts | 68° |
| 2026-05-05 05:31 | 53.35702 | -23.82922 | 39325 ft | 507 kts | 68° |
| 2026-05-05 05:32 | 53.37798 | -23.71704 | 39324 ft | 507 kts | 69° |
| 2026-05-05 05:32 | 53.39894 | -23.60411 | 39315 ft | 508 kts | 69° |
| 2026-05-05 05:33 | 53.41981 | -23.49104 | 39318 ft | 508 kts | 69° |
| 2026-05-05 05:33 | 53.44059 | -23.37772 | 39318 ft | 508 kts | 69° |
| 2026-05-05 05:34 | 53.46125 | -23.26439 | 39323 ft | 508 kts | 69° |
| 2026-05-05 05:34 | 53.48183 | -23.15078 | 39323 ft | 507 kts | 69° |
| 2026-05-05 05:35 | 53.50225 | -23.03733 | 39318 ft | 507 kts | 69° |
| 2026-05-05 05:35 | 53.52244 | -22.92451 | 39314 ft | 507 kts | 69° |
| 2026-05-05 05:36 | 53.54268 | -22.81068 | 39315 ft | 508 kts | 70° |
| 2026-05-05 05:36 | 53.56280 | -22.69680 | 39308 ft | 507 kts | 70° |
| 2026-05-05 05:37 | 53.58279 | -22.58296 | 39311 ft | 507 kts | 70° |
| 2026-05-05 05:37 | 53.60268 | -22.46889 | 39306 ft | 507 kts | 70° |
| 2026-05-05 05:38 | 53.62245 | -22.35483 | 39306 ft | 507 kts | 70° |
| 2026-05-05 05:38 | 53.64199 | -22.24145 | 39306 ft | 507 kts | 70° |
| 2026-05-05 05:39 | 53.66154 | -22.12715 | 39306 ft | 507 kts | 70° |
| 2026-05-05 05:39 | 53.68097 | -22.01286 | 39306 ft | 507 kts | 70° |
| 2026-05-05 05:40 | 53.70032 | -21.89834 | 39304 ft | 507 kts | 71° |
| 2026-05-05 05:40 | 53.71953 | -21.78383 | 39303 ft | 507 kts | 71° |
| 2026-05-05 05:41 | 53.73864 | -21.66920 | 39301 ft | 507 kts | 71° |
| 2026-05-05 05:41 | 53.75764 | -21.55444 | 39301 ft | 507 kts | 71° |
| 2026-05-05 05:42 | 53.77654 | -21.43954 | 39300 ft | 507 kts | 71° |
| 2026-05-05 05:42 | 53.79524 | -21.32511 | 39304 ft | 507 kts | 71° |
| 2026-05-05 05:43 | 53.81389 | -21.21017 | 39303 ft | 506 kts | 71° |
| 2026-05-05 05:43 | 53.83244 | -21.09505 | 39294 ft | 506 kts | 71° |
| 2026-05-05 05:44 | 53.85089 | -20.97982 | 39296 ft | 506 kts | 71° |
| 2026-05-05 05:44 | 53.86923 | -20.86446 | 39290 ft | 507 kts | 71° |
| 2026-05-05 05:45 | 53.88731 | -20.74995 | 39292 ft | 506 kts | 72° |
| 2026-05-05 05:45 | 53.90541 | -20.63452 | 39290 ft | 506 kts | 72° |
| 2026-05-05 05:46 | 53.92339 | -20.51901 | 39288 ft | 506 kts | 72° |
| 2026-05-05 05:46 | 53.94127 | -20.40340 | 39289 ft | 506 kts | 72° |
| 2026-05-05 05:47 | 53.95901 | -20.28783 | 39279 ft | 506 kts | 72° |
| 2026-05-05 05:47 | 53.97664 | -20.17213 | 39279 ft | 505 kts | 72° |
| 2026-05-05 05:48 | 53.99405 | -20.05711 | 39276 ft | 505 kts | 72° |
| 2026-05-05 05:48 | 54.00358 | -19.93841 | 39278 ft | 509 kts | 84° |
| 2026-05-05 05:49 | 54.00624 | -19.83840 | 39285 ft | 508 kts | 85° |
| 2026-05-05 05:49 | 54.00836 | -19.71820 | 39269 ft | 508 kts | 85° |
| 2026-05-05 05:50 | 54.01060 | -19.57863 | 39266 ft | 508 kts | 85° |
| 2026-05-05 05:50 | 54.01223 | -19.47805 | 39265 ft | 508 kts | 85° |
| 2026-05-05 05:51 | 54.01413 | -19.35869 | 39262 ft | 508 kts | 85° |
| 2026-05-05 05:51 | 54.01594 | -19.23836 | 39258 ft | 508 kts | 86° |
| 2026-05-05 05:52 | 54.01761 | -19.11839 | 39257 ft | 507 kts | 86° |
| 2026-05-05 05:52 | 54.01917 | -18.99829 | 39254 ft | 507 kts | 86° |
| 2026-05-05 05:53 | 54.02059 | -18.87902 | 39253 ft | 507 kts | 86° |
| 2026-05-05 05:53 | 54.02190 | -18.75900 | 39252 ft | 507 kts | 86° |
| 2026-05-05 05:54 | 54.02310 | -18.63918 | 39252 ft | 506 kts | 86° |
| 2026-05-05 05:54 | 54.02417 | -18.51931 | 39249 ft | 506 kts | 86° |
| 2026-05-05 05:55 | 54.02512 | -18.40009 | 39249 ft | 506 kts | 86° |
| 2026-05-05 05:55 | 54.02595 | -18.28034 | 39249 ft | 506 kts | 86° |
| 2026-05-05 05:56 | 54.02667 | -18.16045 | 39247 ft | 506 kts | 86° |
| 2026-05-05 05:56 | 54.02727 | -18.04064 | 39243 ft | 506 kts | 87° |
| 2026-05-05 05:57 | 54.02775 | -17.92086 | 39238 ft | 506 kts | 87° |
| 2026-05-05 05:57 | 54.02810 | -17.80185 | 39239 ft | 506 kts | 87° |
| 2026-05-05 05:58 | 54.02834 | -17.68217 | 39236 ft | 506 kts | 87° |
| 2026-05-05 05:58 | 54.02847 | -17.56242 | 39241 ft | 505 kts | 87° |
| 2026-05-05 05:59 | 54.02847 | -17.44283 | 39232 ft | 505 kts | 87° |
| 2026-05-05 05:59 | 54.02835 | -17.32341 | 39233 ft | 505 kts | 87° |
| 2026-05-05 06:00 | 54.02811 | -17.20463 | 39231 ft | 505 kts | 88° |
| 2026-05-05 06:00 | 54.02776 | -17.08506 | 39241 ft | 505 kts | 88° |
| 2026-05-05 06:01 | 54.02729 | -16.96531 | 39229 ft | 504 kts | 88° |
| 2026-05-05 06:01 | 54.02670 | -16.84615 | 39225 ft | 504 kts | 88° |
| 2026-05-05 06:02 | 54.02600 | -16.72727 | 39225 ft | 504 kts | 88° |
| 2026-05-05 06:02 | 54.02517 | -16.60785 | 39224 ft | 504 kts | 88° |
| 2026-05-05 06:03 | 54.02423 | -16.48869 | 39225 ft | 504 kts | 88° |
| 2026-05-05 06:03 | 54.02317 | -16.36941 | 39219 ft | 504 kts | 88° |
| 2026-05-05 06:04 | 54.02199 | -16.25015 | 39222 ft | 504 kts | 88° |
| 2026-05-05 06:04 | 54.02070 | -16.13086 | 39222 ft | 504 kts | 88° |
| 2026-05-05 06:05 | 54.01928 | -16.01157 | 39219 ft | 504 kts | 89° |
| 2026-05-05 06:05 | 54.01775 | -15.89235 | 39219 ft | 504 kts | 89° |
| 2026-05-05 06:06 | 54.01610 | -15.77320 | 39217 ft | 504 kts | 89° |
| 2026-05-05 06:06 | 54.01434 | -15.65460 | 39211 ft | 504 kts | 89° |
| 2026-05-05 06:07 | 54.01246 | -15.53535 | 39211 ft | 504 kts | 89° |
| 2026-05-05 06:07 | 54.01045 | -15.41623 | 39214 ft | 504 kts | 89° |
| 2026-05-05 06:08 | 54.00833 | -15.29704 | 39208 ft | 504 kts | 89° |
| 2026-05-05 06:08 | 54.00611 | -15.17885 | 39209 ft | 503 kts | 89° |
| 2026-05-05 06:09 | 54.00376 | -15.05986 | 39206 ft | 504 kts | 89° |
| 2026-05-05 06:09 | 54.00167 | -14.94061 | 39207 ft | 503 kts | 88° |
| 2026-05-05 06:10 | 54.00218 | -14.82144 | 39204 ft | 503 kts | 86° |
| 2026-05-05 06:10 | 54.00312 | -14.70320 | 39202 ft | 504 kts | 87° |
| 2026-05-05 06:11 | 54.00356 | -14.58328 | 39198 ft | 504 kts | 87° |
| 2026-05-05 06:11 | 54.00362 | -14.46414 | 39198 ft | 504 kts | 87° |
| 2026-05-05 06:12 | 54.00350 | -14.34581 | 39204 ft | 504 kts | 88° |
| 2026-05-05 06:12 | 54.00327 | -14.22670 | 39195 ft | 504 kts | 88° |
| 2026-05-05 06:13 | 54.00293 | -14.10747 | 39195 ft | 504 kts | 88° |
| 2026-05-05 06:13 | 53.99773 | -13.98854 | 39187 ft | 507 kts | 100° |
| 2026-05-05 06:14 | 53.97776 | -13.87369 | 39191 ft | 506 kts | 107° |
| 2026-05-05 06:14 | 53.95494 | -13.76135 | 39185 ft | 506 kts | 107° |
| 2026-05-05 06:15 | 53.93156 | -13.64883 | 39184 ft | 505 kts | 107° |
| 2026-05-05 06:15 | 53.90830 | -13.53647 | 39184 ft | 505 kts | 107° |
| 2026-05-05 06:16 | 53.88503 | -13.42389 | 39184 ft | 505 kts | 107° |
| 2026-05-05 06:16 | 53.86173 | -13.31157 | 39184 ft | 505 kts | 107° |
| 2026-05-05 06:17 | 53.83828 | -13.19924 | 39176 ft | 505 kts | 108° |
| 2026-05-05 06:17 | 53.81473 | -13.08707 | 39175 ft | 505 kts | 108° |
| 2026-05-05 06:18 | 53.79122 | -12.97572 | 39163 ft | 505 kts | 108° |
| 2026-05-05 06:18 | 53.76752 | -12.86407 | 39173 ft | 504 kts | 108° |
| 2026-05-05 06:19 | 53.74371 | -12.75252 | 39165 ft | 504 kts | 108° |
| 2026-05-05 06:19 | 53.71982 | -12.64122 | 39165 ft | 504 kts | 108° |
| 2026-05-05 06:20 | 53.69585 | -12.53018 | 39166 ft | 504 kts | 108° |
| 2026-05-05 06:20 | 53.67186 | -12.41960 | 39159 ft | 504 kts | 108° |
| 2026-05-05 06:21 | 53.64765 | -12.30865 | 39158 ft | 504 kts | 108° |
| 2026-05-05 06:21 | 53.62333 | -12.19774 | 39150 ft | 504 kts | 108° |
| 2026-05-05 06:22 | 53.59890 | -12.08696 | 39153 ft | 503 kts | 108° |
| 2026-05-05 06:22 | 53.57458 | -11.97725 | 39160 ft | 504 kts | 109° |
| 2026-05-05 06:23 | 53.54998 | -11.86687 | 39146 ft | 503 kts | 109° |
| 2026-05-05 06:23 | 53.52532 | -11.75680 | 39146 ft | 503 kts | 109° |
| 2026-05-05 06:24 | 53.50057 | -11.64690 | 39146 ft | 503 kts | 109° |
| 2026-05-05 06:24 | 53.47569 | -11.53700 | 39141 ft | 503 kts | 109° |
| 2026-05-05 06:25 | 53.45074 | -11.42739 | 39143 ft | 503 kts | 109° |
| 2026-05-05 06:25 | 53.42569 | -11.31785 | 39138 ft | 502 kts | 109° |
| 2026-05-05 06:26 | 53.40061 | -11.20880 | 39138 ft | 501 kts | 109° |
| 2026-05-05 06:26 | 53.37558 | -11.10053 | 39132 ft | 501 kts | 109° |
| 2026-05-05 06:27 | 53.33763 | -10.93734 | 39126 ft | 501 kts | 109° |
| 2026-05-05 06:28 | 53.31222 | -10.82878 | 39130 ft | 501 kts | 110° |
| 2026-05-05 06:28 | 53.28671 | -10.72036 | 39129 ft | 501 kts | 110° |
| 2026-05-05 06:29 | 53.26110 | -10.61208 | 39119 ft | 501 kts | 110° |
| 2026-05-05 06:29 | 53.23535 | -10.50373 | 39127 ft | 501 kts | 110° |
| 2026-05-05 06:30 | 53.20968 | -10.39623 | 39127 ft | 501 kts | 110° |
| 2026-05-05 06:30 | 53.18372 | -10.28809 | 39127 ft | 502 kts | 110° |
| 2026-05-05 06:31 | 53.15772 | -10.18030 | 39126 ft | 500 kts | 110° |
| 2026-05-05 06:31 | 53.13167 | -10.07285 | 39125 ft | 500 kts | 110° |
| 2026-05-05 06:32 | 53.10553 | -9.96555 | 39119 ft | 500 kts | 110° |
| 2026-05-05 06:32 | 53.07930 | -9.85840 | 39119 ft | 500 kts | 110° |
| 2026-05-05 06:33 | 53.05311 | -9.75195 | 39116 ft | 500 kts | 110° |
| 2026-05-05 06:33 | 53.02668 | -9.64503 | 39121 ft | 500 kts | 111° |
| 2026-05-05 06:34 | 53.00017 | -9.53832 | 39115 ft | 500 kts | 111° |
| 2026-05-05 06:34 | 52.97358 | -9.43178 | 39118 ft | 500 kts | 111° |
| 2026-05-05 06:35 | 52.94687 | -9.32530 | 39122 ft | 500 kts | 111° |
| 2026-05-05 06:35 | 52.92006 | -9.21889 | 39121 ft | 500 kts | 111° |
| 2026-05-05 06:36 | 52.89314 | -9.11259 | 39123 ft | 500 kts | 111° |
| 2026-05-05 06:36 | 52.86620 | -9.00672 | 39122 ft | 498 kts | 111° |
| 2026-05-05 06:37 | 52.84377 | -8.91894 | 39125 ft | 498 kts | 111° |
| 2026-05-05 06:37 | 52.81225 | -8.79615 | 39122 ft | 498 kts | 111° |
| 2026-05-05 06:38 | 52.78965 | -8.70853 | 39121 ft | 498 kts | 111° |
| 2026-05-05 06:38 | 52.76241 | -8.60338 | 39116 ft | 498 kts | 111° |
| 2026-05-05 06:39 | 52.73502 | -8.49814 | 39118 ft | 498 kts | 111° |
| 2026-05-05 06:39 | 52.70758 | -8.39320 | 39108 ft | 497 kts | 112° |
| 2026-05-05 06:40 | 52.68015 | -8.28876 | 39115 ft | 496 kts | 112° |
| 2026-05-05 06:40 | 52.65282 | -8.18520 | 39107 ft | 496 kts | 112° |
| 2026-05-05 06:41 | 52.62523 | -8.08112 | 39111 ft | 496 kts | 112° |
| 2026-05-05 06:41 | 52.59758 | -7.97729 | 39106 ft | 496 kts | 112° |
| 2026-05-05 06:42 | 52.56983 | -7.87355 | 39105 ft | 495 kts | 112° |
| 2026-05-05 06:42 | 52.54200 | -7.76997 | 39102 ft | 495 kts | 112° |
| 2026-05-05 06:43 | 52.51408 | -7.66655 | 39102 ft | 495 kts | 112° |
| 2026-05-05 06:43 | 52.48613 | -7.56348 | 39096 ft | 494 kts | 112° |
| 2026-05-05 06:44 | 52.45810 | -7.46058 | 39096 ft | 493 kts | 112° |
| 2026-05-05 06:44 | 52.43026 | -7.35878 | 39092 ft | 493 kts | 112° |
| 2026-05-05 06:45 | 52.40214 | -7.25647 | 39093 ft | 492 kts | 112° |
| 2026-05-05 06:45 | 52.37390 | -7.15415 | 39088 ft | 492 kts | 112° |
| 2026-05-05 06:46 | 52.34561 | -7.05209 | 39089 ft | 492 kts | 112° |
| 2026-05-05 06:46 | 52.31723 | -6.95016 | 39084 ft | 492 kts | 112° |
| 2026-05-05 06:47 | 52.28893 | -6.84899 | 39088 ft | 492 kts | 112° |
| 2026-05-05 06:47 | 52.26035 | -6.74722 | 39089 ft | 492 kts | 112° |
| 2026-05-05 06:48 | 52.23173 | -6.64573 | 39064 ft | 492 kts | 112° |
| 2026-05-05 06:48 | 52.20303 | -6.54441 | 39081 ft | 492 kts | 112° |
| 2026-05-05 06:49 | 52.17448 | -6.44408 | 39079 ft | 492 kts | 112° |
| 2026-05-05 06:49 | 52.14561 | -6.34305 | 39068 ft | 491 kts | 112° |
| 2026-05-05 06:50 | 52.11672 | -6.24238 | 39066 ft | 490 kts | 113° |
| 2026-05-05 06:50 | 52.08782 | -6.14209 | 39064 ft | 489 kts | 113° |
| 2026-05-05 06:51 | 52.05886 | -6.04200 | 39065 ft | 489 kts | 113° |
| 2026-05-05 06:51 | 52.03032 | -5.94187 | 39058 ft | 489 kts | 112° |
| 2026-05-05 06:52 | 52.00219 | -5.84127 | 39060 ft | 488 kts | 112° |
| 2026-05-05 06:52 | 51.97398 | -5.74097 | 39057 ft | 488 kts | 112° |
| 2026-05-05 06:53 | 51.94577 | -5.64153 | 39060 ft | 488 kts | 113° |
| 2026-05-05 06:53 | 51.91728 | -5.54172 | 39056 ft | 488 kts | 113° |
| 2026-05-05 06:54 | 51.88867 | -5.44192 | 39048 ft | 488 kts | 113° |
| 2026-05-05 06:54 | 51.86000 | -5.34231 | 39059 ft | 488 kts | 113° |
| 2026-05-05 06:55 | 51.83122 | -5.24272 | 39046 ft | 488 kts | 113° |
| 2026-05-05 06:55 | 51.80258 | -5.14403 | 39058 ft | 488 kts | 113° |
| 2026-05-05 06:56 | 51.77366 | -5.04467 | 39056 ft | 488 kts | 113° |
| 2026-05-05 06:56 | 51.74670 | -4.94428 | 39045 ft | 487 kts | 110° |
| 2026-05-05 06:57 | 51.72069 | -4.84304 | 39044 ft | 488 kts | 111° |
| 2026-05-05 06:57 | 51.69454 | -4.74282 | 39043 ft | 487 kts | 111° |
| 2026-05-05 06:58 | 51.66790 | -4.64239 | 39035 ft | 487 kts | 111° |
| 2026-05-05 06:58 | 51.64112 | -4.54232 | 39032 ft | 486 kts | 111° |
| 2026-05-05 06:59 | 51.61419 | -4.44212 | 39038 ft | 486 kts | 111° |
| 2026-05-05 06:59 | 51.58730 | -4.34240 | 39026 ft | 486 kts | 111° |
| 2026-05-05 07:00 | 51.56046 | -4.24327 | 39026 ft | 487 kts | 112° |
| 2026-05-05 07:00 | 51.54066 | -4.13961 | 39020 ft | 484 kts | 100° |
| 2026-05-05 07:01 | 51.52793 | -4.03306 | 39018 ft | 486 kts | 98° |
| 2026-05-05 07:01 | 51.51619 | -3.92649 | 39026 ft | 487 kts | 98° |
| 2026-05-05 07:02 | 51.50425 | -3.81943 | 39026 ft | 487 kts | 99° |
| 2026-05-05 07:02 | 51.49202 | -3.71249 | 38959 ft | 485 kts | 99° |
| 2026-05-05 07:02 | 51.48590 | -3.65956 | 38282 ft | 483 kts | 99° |
| 2026-05-05 07:03 | 51.48104 | -3.60616 | 37370 ft | 485 kts | 95° |
| 2026-05-05 07:03 | 51.47748 | -3.55231 | 36641 ft | 483 kts | 94° |
| 2026-05-05 07:03 | 51.47427 | -3.49894 | 35988 ft | 479 kts | 94° |
| 2026-05-05 07:03 | 51.47123 | -3.44586 | 35333 ft | 477 kts | 94° |
| 2026-05-05 07:04 | 51.46825 | -3.39305 | 34636 ft | 475 kts | 94° |
| 2026-05-05 07:04 | 51.46526 | -3.34035 | 33866 ft | 474 kts | 94° |
| 2026-05-05 07:04 | 51.46221 | -3.28771 | 33039 ft | 473 kts | 95° |
| 2026-05-05 07:04 | 51.45910 | -3.23545 | 32462 ft | 468 kts | 95° |
| 2026-05-05 07:05 | 51.45604 | -3.18473 | 31962 ft | 461 kts | 95° |
| 2026-05-05 07:05 | 51.45289 | -3.13320 | 31436 ft | 456 kts | 95° |
| 2026-05-05 07:05 | 51.44985 | -3.08376 | 30932 ft | 450 kts | 96° |
| 2026-05-05 07:05 | 51.44677 | -3.03399 | 30407 ft | 446 kts | 96° |
| 2026-05-05 07:06 | 51.44370 | -2.98474 | 29861 ft | 441 kts | 96° |
| 2026-05-05 07:06 | 51.44064 | -2.93612 | 29329 ft | 435 kts | 96° |
| 2026-05-05 07:06 | 51.43761 | -2.88829 | 28834 ft | 429 kts | 96° |
| 2026-05-05 07:06 | 51.43461 | -2.84105 | 28343 ft | 423 kts | 97° |
| 2026-05-05 07:07 | 51.43160 | -2.79416 | 27867 ft | 422 kts | 97° |
| 2026-05-05 07:07 | 51.42857 | -2.74742 | 27388 ft | 420 kts | 97° |
| 2026-05-05 07:07 | 51.42555 | -2.70096 | 26889 ft | 417 kts | 96° |
| 2026-05-05 07:07 | 51.42254 | -2.65496 | 26411 ft | 414 kts | 96° |
| 2026-05-05 07:08 | 51.41959 | -2.60988 | 25948 ft | 411 kts | 96° |
| 2026-05-05 07:08 | 51.41660 | -2.56448 | 25457 ft | 408 kts | 96° |
| 2026-05-05 07:08 | 51.41362 | -2.51950 | 24992 ft | 404 kts | 96° |
| 2026-05-05 07:08 | 51.41064 | -2.47485 | 24512 ft | 401 kts | 96° |
| 2026-05-05 07:09 | 51.40770 | -2.43065 | 24063 ft | 398 kts | 96° |
| 2026-05-05 07:09 | 51.40475 | -2.38674 | 23593 ft | 395 kts | 96° |
| 2026-05-05 07:09 | 51.40178 | -2.34313 | 23070 ft | 391 kts | 96° |
| 2026-05-05 07:09 | 51.39881 | -2.30004 | 22587 ft | 388 kts | 96° |
| 2026-05-05 07:10 | 51.39616 | -2.25726 | 22257 ft | 385 kts | 93° |
| 2026-05-05 07:10 | 51.39697 | -2.21464 | 21698 ft | 383 kts | 84° |
| 2026-05-05 07:10 | 51.39964 | -2.17169 | 20660 ft | 393 kts | 84° |
| 2026-05-05 07:10 | 51.40220 | -2.12807 | 19669 ft | 400 kts | 85° |
| 2026-05-05 07:11 | 51.40478 | -2.08365 | 18870 ft | 402 kts | 85° |
| 2026-05-05 07:11 | 51.40733 | -2.04020 | 17765 ft | 391 kts | 84° |
| 2026-05-05 07:11 | 51.40989 | -1.99690 | 16200 ft | 390 kts | 84° |
| 2026-05-05 07:11 | 51.41243 | -1.95360 | 14727 ft | 389 kts | 83° |
| 2026-05-05 07:12 | 51.41493 | -1.91062 | 13293 ft | 386 kts | 83° |
| 2026-05-05 07:12 | 51.41735 | -1.86853 | 12452 ft | 368 kts | 83° |
| 2026-05-05 07:12 | 51.41965 | -1.82914 | 12187 ft | 344 kts | 83° |
| 2026-05-05 07:12 | 51.42190 | -1.79151 | 11804 ft | 336 kts | 82° |
| 2026-05-05 07:13 | 51.42410 | -1.75440 | 11376 ft | 336 kts | 82° |
| 2026-05-05 07:13 | 51.42629 | -1.71719 | 10893 ft | 334 kts | 83° |
| 2026-05-05 07:13 | 51.42839 | -1.68062 | 10640 ft | 323 kts | 83° |
| 2026-05-05 07:13 | 51.43036 | -1.64572 | 10526 ft | 306 kts | 83° |
| 2026-05-05 07:14 | 51.43222 | -1.61247 | 10420 ft | 291 kts | 83° |
| 2026-05-05 07:14 | 51.43392 | -1.58109 | 10320 ft | 277 kts | 83° |
| 2026-05-05 07:14 | 51.43554 | -1.55115 | 10180 ft | 271 kts | 83° |
| 2026-05-05 07:14 | 51.43718 | -1.52110 | 9949 ft | 270 kts | 83° |
| 2026-05-05 07:15 | 51.43889 | -1.49025 | 9707 ft | 285 kts | 82° |
| 2026-05-05 07:15 | 51.44069 | -1.45819 | 9585 ft | 287 kts | 82° |
| 2026-05-05 07:15 | 51.44247 | -1.42640 | 9082 ft | 287 kts | 82° |
| 2026-05-05 07:15 | 51.44421 | -1.39459 | 8690 ft | 286 kts | 82° |
| 2026-05-05 07:16 | 51.44594 | -1.36284 | 8368 ft | 286 kts | 82° |
| 2026-05-05 07:16 | 51.44767 | -1.33116 | 8065 ft | 284 kts | 82° |
| 2026-05-05 07:16 | 51.44938 | -1.29972 | 7761 ft | 282 kts | 82° |
| 2026-05-05 07:16 | 51.45105 | -1.26841 | 7466 ft | 281 kts | 82° |
| 2026-05-05 07:17 | 51.45270 | -1.23762 | 7162 ft | 280 kts | 82° |
| 2026-05-05 07:17 | 51.45436 | -1.20659 | 6860 ft | 279 kts | 82° |
| 2026-05-05 07:17 | 51.45600 | -1.17565 | 6549 ft | 277 kts | 81° |
| 2026-05-05 07:17 | 51.45760 | -1.14494 | 6243 ft | 276 kts | 81° |
| 2026-05-05 07:18 | 51.45920 | -1.11432 | 5941 ft | 274 kts | 81° |
| 2026-05-05 07:18 | 51.46078 | -1.08402 | 5646 ft | 272 kts | 81° |
| 2026-05-05 07:18 | 51.46234 | -1.05388 | 5354 ft | 270 kts | 81° |
| 2026-05-05 07:18 | 51.46387 | -1.02412 | 5067 ft | 267 kts | 81° |
| 2026-05-05 07:19 | 51.46539 | -0.99444 | 4757 ft | 265 kts | 80° |
| 2026-05-05 07:19 | 51.46688 | -0.96515 | 4495 ft | 259 kts | 80° |
| 2026-05-05 07:19 | 51.46829 | -0.93707 | 4377 ft | 246 kts | 81° |
| 2026-05-05 07:19 | 51.46959 | -0.91023 | 4162 ft | 238 kts | 81° |
| 2026-05-05 07:20 | 51.47085 | -0.88432 | 3893 ft | 233 kts | 81° |
| 2026-05-05 07:20 | 51.47207 | -0.85897 | 3744 ft | 224 kts | 81° |
| 2026-05-05 07:20 | 51.47328 | -0.83400 | 3692 ft | 225 kts | 81° |
| 2026-05-05 07:20 | 51.47457 | -0.80891 | 3638 ft | 224 kts | 80° |
| 2026-05-05 07:21 | 51.47638 | -0.78409 | 3542 ft | 225 kts | 81° |
| 2026-05-05 07:21 | 51.47669 | -0.75892 | 3322 ft | 226 kts | 85° |
| 2026-05-05 07:21 | 51.47671 | -0.73408 | 3159 ft | 217 kts | 84° |
| 2026-05-05 07:21 | 51.47684 | -0.71065 | 2948 ft | 209 kts | 84° |
| 2026-05-05 07:22 | 51.47686 | -0.68774 | 2668 ft | 202 kts | 84° |
| 2026-05-05 07:22 | 51.47693 | -0.66766 | 2404 ft | 195 kts | 83° |
| 2026-05-05 07:22 | 51.47701 | -0.64670 | 2143 ft | 181 kts | 83° |
| 2026-05-05 07:22 | 51.47707 | -0.62726 | 1900 ft | 166 kts | 84° |
| 2026-05-05 07:23 | 51.47711 | -0.60957 | 1676 ft | 152 kts | 83° |
| 2026-05-05 07:23 | 51.47714 | -0.59335 | 1473 ft | 140 kts | 86° |
| 2026-05-05 07:23 | 51.47714 | -0.57817 | 1288 ft | 133 kts | 85° |
| 2026-05-05 07:23 | 51.47720 | -0.56327 | 1105 ft | 133 kts | 85° |
| 2026-05-05 07:24 | 51.47729 | -0.54836 | 916 ft | 134 kts | 85° |
| 2026-05-05 07:24 | 51.47731 | -0.53338 | 731 ft | 133 kts | 78° |
| 2026-05-05 07:24 | 51.47749 | -0.51846 | 572 ft | 137 kts | 84° |
| 2026-05-05 07:24 | 51.47741 | -0.50294 | 338 ft | 139 kts | 86° |
| 2026-05-05 07:25 | 51.47750 | -0.48793 | 176 ft | 132 kts | 88° |
| 2026-05-05 07:25 | 51.47752 | -0.47320 | 95 ft | 127 kts | 85° |
| 2026-05-05 07:25 | 51.47760 | -0.46097 | 95 ft | 87 kts | 90° |
| 2026-05-05 07:25 | 51.47762 | -0.45451 | 92 ft | 48 kts | 90° |
| 2026-05-05 07:26 | 51.47763 | -0.44958 | 95 ft | 30 kts | 91° |
| 2026-05-05 07:26 | 51.47754 | -0.44894 | 97 ft | 6 kts | 135° |
| 2026-05-05 07:26 | 51.47674 | -0.44814 | 97 ft | 17 kts | 150° |
| 2026-05-05 07:26 | 51.47582 | -0.44687 | 97 ft | 17 kts | 142° |
| 2026-05-05 07:27 | 51.47520 | -0.44720 | 95 ft | 10 kts | 245° |
| 2026-05-05 07:27 | 51.47509 | -0.44872 | 96 ft | 25 kts | 268° |
| 2026-05-05 07:27 | 51.47511 | -0.45165 | 95 ft | 27 kts | 266° |
| 2026-05-05 07:27 | 51.47509 | -0.45450 | 95 ft | 29 kts | 270° |
| 2026-05-05 07:28 | 51.47513 | -0.45745 | 95 ft | 30 kts | 275° |
| 2026-05-05 07:28 | 51.47517 | -0.46071 | 95 ft | 30 kts | 270° |
| 2026-05-05 07:28 | 51.47516 | -0.46402 | 94 ft | 29 kts | 270° |
| 2026-05-05 07:28 | 51.47512 | -0.46703 | 93 ft | 13 kts | 251° |
| 2026-05-05 07:29 | 51.47445 | -0.46744 | 96 ft | 19 kts | 173° |
| 2026-05-05 07:29 | 51.47280 | -0.46724 | 92 ft | 26 kts | 179° |
| 2026-05-05 07:29 | 51.47090 | -0.46724 | 93 ft | 27 kts | 179° |
| 2026-05-05 07:29 | 51.47015 | -0.46685 | 95 ft | 16 kts | 149° |
| 2026-05-05 07:30 | 51.46872 | -0.46529 | 96 ft | 20 kts | 145° |
| 2026-05-05 07:30 | 51.46829 | -0.46415 | 97 ft | 8 kts | 80° |
| 2026-05-05 07:30 | 51.46847 | -0.46353 | 97 ft | 0 kts | 57° |
| 2026-05-05 07:31 | 51.46849 | -0.46349 | 97 ft | 0 kts | 56° |